Observation data for Fort Lancaster on 03/23/2019      Previous  Date  Next       Current Mesonet Observations  Soil Data  Daily Summary Page  Observations in Plain Language
KLA1 230500Z 15008KT 18/14 A2998 RMK A01 T01750143  RH  081%=      5-min Rain = 0
KLA1 230501Z 14007KT 18/14 A2998 RMK A01 T01760143  RH  081%=      5-min Rain = 0
KLA1 230502Z 14008KT 18/14 A2998 RMK A01 T01760143  RH  081%=      5-min Rain = 0
KLA1 230503Z 14009KT 18/14 A2998 RMK A01 T01760143  RH  081%=      5-min Rain = 0
KLA1 230504Z 14009KT 18/14 A2998 RMK A01 T01750143  RH  081%=      5-min Rain = 0
KLA1 230505Z 15006KT 18/14 A2998 RMK A01 T01760143  RH  081%=      5-min Rain = 0
KLA1 230506Z 14006KT 18/14 A2998 RMK A01 T01760143  RH  081%=      5-min Rain = 0
KLA1 230507Z 14010G15KT 18/14 A2998 RMK A01 T01760143  RH  081%=      5-min Rain = 0
KLA1 230508Z 14009G14KT 18/14 A2998 RMK A01 T01760143  RH  081%=      5-min Rain = 0
KLA1 230509Z 15008KT 18/14 A2998 RMK A01 T01760143  RH  081%=      5-min Rain = 0
KLA1 230510Z 14009KT 18/14 A2998 RMK A01 T01760143  RH  081%=      5-min Rain = 0
KLA1 230511Z 14011G16KT 18/14 A2998 RMK A01 T01760143  RH  081%=      5-min Rain = 0
KLA1 230512Z 15009KT 18/14 A2999 RMK A01 T01760143  RH  081%=      5-min Rain = 0
KLA1 230513Z 14009KT 18/14 A2999 RMK A01 T01770143  RH  081%=      5-min Rain = 0
KLA1 230514Z 14008KT 18/14 A2999 RMK A01 T01770144  RH  081%=      5-min Rain = 0
KLA1 230515Z 15009KT 18/14 A2999 RMK A01 T01770143  RH  081%=      5-min Rain = 0
KLA1 230516Z 15008KT 18/14 A2999 RMK A01 T01770143  RH  081%=      5-min Rain = 0
KLA1 230517Z 14009KT 18/14 A2999 RMK A01 T01770143  RH  081%=      5-min Rain = 0
KLA1 230518Z 14008KT 18/14 A2999 RMK A01 T01770143  RH  081%=      5-min Rain = 0
KLA1 230519Z 14009KT 18/14 A2999 RMK A01 T01770143  RH  081%=      5-min Rain = 0
KLA1 230520Z 14010KT 18/14 A2999 RMK A01 T01770143  RH  080%=      5-min Rain = 0
KLA1 230521Z 16008KT 18/14 A2999 RMK A01 T01770143  RH  080%=      5-min Rain = 0
KLA1 230522Z 15008KT 18/14 A2999 RMK A01 T01770143  RH  080%=      5-min Rain = 0
KLA1 230523Z 15009KT 18/14 A2999 RMK A01 T01770143  RH  081%=      5-min Rain = 0
KLA1 230524Z 15009KT 18/14 A2999 RMK A01 T01770143  RH  081%=      5-min Rain = 0
KLA1 230525Z 16009KT 18/14 A2999 RMK A01 T01770143  RH  081%=      5-min Rain = 0
KLA1 230526Z 14008KT 18/14 A2999 RMK A01 T01770143  RH  080%=      5-min Rain = 0
KLA1 230527Z 15009KT 18/14 A2999 RMK A01 T01780143  RH  080%=      5-min Rain = 0
KLA1 230528Z 15011KT 18/14 A2999 RMK A01 T01780143  RH  080%=      5-min Rain = 0
KLA1 230529Z 15009KT 18/14 A2999 RMK A01 T01780143  RH  080%=      5-min Rain = 0
KLA1 230530Z 15010KT 18/14 A2999 RMK A01 T01780143  RH  080%=      5-min Rain = 0
KLA1 230531Z 14010KT 18/14 A2999 RMK A01 T01780143  RH  080%=      5-min Rain = 0
KLA1 230532Z 14011KT 18/14 A2999 RMK A01 T01780143  RH  080%=      5-min Rain = 0
KLA1 230533Z 14010KT 18/14 A2999 RMK A01 T01780143  RH  080%=      5-min Rain = 0
KLA1 230534Z 15011KT 18/14 A2999 RMK A01 T01780143  RH  080%=      5-min Rain = 0
KLA1 230535Z 15011KT 18/14 A2998 RMK A01 T01780142  RH  079%=      5-min Rain = 0
KLA1 230536Z 14009KT 18/14 A2998 RMK A01 T01780142  RH  080%=      5-min Rain = 0
KLA1 230537Z 14010KT 18/14 A2998 RMK A01 T01780143  RH  080%=      5-min Rain = 0
KLA1 230538Z 14011KT 18/14 A2998 RMK A01 T01780143  RH  080%=      5-min Rain = 0
KLA1 230539Z 15009KT 18/14 A2998 RMK A01 T01780143  RH  080%=      5-min Rain = 0
KLA1 230540Z 14007KT 18/14 A2998 RMK A01 T01780143  RH  080%=      5-min Rain = 0
KLA1 230541Z 15008KT 18/14 A2999 RMK A01 T01790143  RH  080%=      5-min Rain = 0
KLA1 230542Z 15009KT 18/14 A2999 RMK A01 T01780143  RH  080%=      5-min Rain = 0
KLA1 230543Z 15007KT 18/14 A2999 RMK A01 T01780143  RH  080%=      5-min Rain = 0
KLA1 230544Z 16008KT 18/14 A2999 RMK A01 T01780143  RH  080%=      5-min Rain = 0
KLA1 230545Z 17009KT 18/14 A2999 RMK A01 T01780143  RH  080%=      5-min Rain = 0
KLA1 230546Z 15009KT 18/14 A2999 RMK A01 T01780142  RH  080%=      5-min Rain = 0
KLA1 230547Z 15011KT 18/14 A2999 RMK A01 T01780142  RH  079%=      5-min Rain = 0
KLA1 230548Z 16010KT 18/14 A2999 RMK A01 T01790142  RH  079%=      5-min Rain = 0
KLA1 230549Z 15013KT 18/14 A2999 RMK A01 T01790142  RH  079%=      5-min Rain = 0
KLA1 230550Z 15011KT 18/14 A2999 RMK A01 T01790142  RH  079%=      5-min Rain = 0
KLA1 230551Z 16011KT 18/14 A2999 RMK A01 T01800142  RH  079%=      5-min Rain = 0
KLA1 230552Z 16010KT 18/14 A2999 RMK A01 T01800142  RH  078%=      5-min Rain = 0
KLA1 230553Z 16008KT 18/14 A2999 RMK A01 T01800142  RH  079%=      5-min Rain = 0
KLA1 230554Z 16007KT 18/14 A2999 RMK A01 T01800142  RH  079%=      5-min Rain = 0
KLA1 230555Z 15009KT 18/14 A2999 RMK A01 T01800142  RH  079%=      5-min Rain = 0
KLA1 230556Z 17006KT 18/14 A2999 RMK A01 T01800142  RH  079%=      5-min Rain = 0
KLA1 230557Z 15007KT 18/14 A2999 RMK A01 T01800142  RH  079%=      5-min Rain = 0
KLA1 230558Z 16007KT 18/14 A2999 RMK A01 T01800143  RH  079%=      5-min Rain = 0
KLA1 230559Z 16008KT 18/14 A2999 RMK A01 T01790142  RH  079%=      5-min Rain = 0
KLA1 230600Z 15011KT 18/14 A30 RMK A01 T01790142  RH  079%=      5-min Rain = 0
KLA1 230601Z 14010KT 18/14 A2999 RMK A01 T01790142  RH  079%=      5-min Rain = 0
KLA1 230602Z 16009KT 18/14 A2999 RMK A01 T01800141  RH  078%=      5-min Rain = 0
KLA1 230603Z 16009KT 18/14 A2999 RMK A01 T01800141  RH  078%=      5-min Rain = 0
KLA1 230604Z 15009KT 18/14 A30 RMK A01 T01800141  RH  078%=      5-min Rain = 0
KLA1 230605Z 16008KT 18/14 A30 RMK A01 T01800142  RH  078%=      5-min Rain = 0
KLA1 230606Z 15008KT 18/14 A30 RMK A01 T01800142  RH  078%=      5-min Rain = 0
KLA1 230607Z 15009KT 18/14 A30 RMK A01 T01800142  RH  078%=      5-min Rain = 0
KLA1 230608Z 15007KT 18/14 A30 RMK A01 T01800142  RH  078%=      5-min Rain = 0
KLA1 230609Z 16007KT 18/14 A30 RMK A01 T01800142  RH  078%=      5-min Rain = 0
KLA1 230610Z 16007KT 18/14 A30 RMK A01 T01790142  RH  079%=      5-min Rain = 0
KLA1 230611Z 15008KT 18/14 A2999 RMK A01 T01800142  RH  079%=      5-min Rain = 0
KLA1 230612Z 14010KT 18/14 A2999 RMK A01 T01800142  RH  078%=      5-min Rain = 0
KLA1 230613Z 14011KT 18/14 A2999 RMK A01 T01800142  RH  078%=      5-min Rain = 0
KLA1 230614Z 15010KT 18/14 A2999 RMK A01 T01800141  RH  078%=      5-min Rain = 0
KLA1 230615Z 16008KT 18/14 A2999 RMK A01 T01800141  RH  078%=      5-min Rain = 0
KLA1 230616Z 15008KT 18/14 A2999 RMK A01 T01800141  RH  078%=      5-min Rain = 0
KLA1 230617Z 15008KT 18/14 A2999 RMK A01 T01800142  RH  078%=      5-min Rain = 0
KLA1 230618Z 16010KT 18/14 A2999 RMK A01 T01800142  RH  078%=      5-min Rain = 0
KLA1 230619Z 15009KT 18/14 A2999 RMK A01 T01800142  RH  078%=      5-min Rain = 0
KLA1 230620Z 16009KT 18/14 A2999 RMK A01 T01800141  RH  078%=      5-min Rain = 0
KLA1 230621Z 16008KT 18/14 A2999 RMK A01 T01800142  RH  078%=      5-min Rain = 0
KLA1 230622Z 16010KT 18/14 A2999 RMK A01 T01800141  RH  078%=      5-min Rain = 0
KLA1 230623Z 16008KT 18/14 A2999 RMK A01 T01800141  RH  078%=      5-min Rain = 0
KLA1 230624Z 15006KT 18/14 A2999 RMK A01 T01800141  RH  078%=      5-min Rain = 0
KLA1 230625Z 16007KT 18/14 A2999 RMK A01 T01800141  RH  078%=      5-min Rain = 0
KLA1 230626Z 17005KT 18/14 A2999 RMK A01 T01800141  RH  078%=      5-min Rain = 0
KLA1 230627Z 15006KT 18/14 A2999 RMK A01 T01800141  RH  078%=      5-min Rain = 0
KLA1 230628Z 16006KT 18/14 A2999 RMK A01 T01800141  RH  078%=      5-min Rain = 0
KLA1 230629Z 15005KT 18/14 A2999 RMK A01 T01800141  RH  078%=      5-min Rain = 0
KLA1 230630Z 17006KT 18/14 A2999 RMK A01 T01800142  RH  078%=      5-min Rain = 0
KLA1 230631Z 16007KT 18/14 A2999 RMK A01 T01800142  RH  078%=      5-min Rain = 0
KLA1 230632Z 15008KT 18/14 A2999 RMK A01 T01800142  RH  078%=      5-min Rain = 0
KLA1 230633Z 15007KT 18/14 A2999 RMK A01 T01800142  RH  078%=      5-min Rain = 0
KLA1 230634Z 16005KT 18/14 A2999 RMK A01 T01800142  RH  078%=      5-min Rain = 0
KLA1 230635Z 15007KT 18/14 A2999 RMK A01 T01800142  RH  078%=      5-min Rain = 0
KLA1 230636Z 14007KT 18/14 A2999 RMK A01 T01800142  RH  078%=      5-min Rain = 0
KLA1 230637Z 16007KT 18/14 A2999 RMK A01 T01800141  RH  078%=      5-min Rain = 0
KLA1 230638Z 15007KT 18/14 A2999 RMK A01 T01800141  RH  078%=      5-min Rain = 0
KLA1 230639Z 17006KT 18/14 A2999 RMK A01 T01800141  RH  078%=      5-min Rain = 0
KLA1 230640Z 16006KT 18/14 A2999 RMK A01 T01800141  RH  078%=      5-min Rain = 0
KLA1 230641Z 17006KT 18/14 A2999 RMK A01 T01800141  RH  078%=      5-min Rain = 0
KLA1 230642Z 17007KT 18/14 A2999 RMK A01 T01800141  RH  078%=      5-min Rain = 0
KLA1 230643Z 17007KT 18/14 A2999 RMK A01 T01800141  RH  078%=      5-min Rain = 0
KLA1 230644Z 16007KT 18/14 A2999 RMK A01 T01800141  RH  078%=      5-min Rain = 0
KLA1 230645Z 17006KT 18/14 A2999 RMK A01 T01800141  RH  078%=      5-min Rain = 0
KLA1 230646Z 18007KT 18/14 A2999 RMK A01 T01800141  RH  078%=      5-min Rain = 0
KLA1 230647Z 18006KT 18/14 A2999 RMK A01 T01800141  RH  078%=      5-min Rain = 0
KLA1 230648Z 18005KT 18/14 A2999 RMK A01 T01800141  RH  078%=      5-min Rain = 0
KLA1 230649Z 18004KT 18/14 A2999 RMK A01 T01800141  RH  078%=      5-min Rain = 0
KLA1 230650Z 18003KT 18/14 A2999 RMK A01 T01800142  RH  078%=      5-min Rain = 0
KLA1 230651Z 19004KT 18/14 A2999 RMK A01 T01790141  RH  078%=      5-min Rain = 0
KLA1 230652Z 18007KT 18/14 A2999 RMK A01 T01790141  RH  078%=      5-min Rain = 0
KLA1 230653Z 17005KT 18/14 A2999 RMK A01 T01790141  RH  078%=      5-min Rain = 0
KLA1 230654Z 17008KT 18/14 A2999 RMK A01 T01790141  RH  078%=      5-min Rain = 0
KLA1 230655Z 17006KT 18/14 A2999 RMK A01 T01800141  RH  078%=      5-min Rain = 0
KLA1 230656Z 17006KT 18/14 A2999 RMK A01 T01800141  RH  078%=      5-min Rain = 0
KLA1 230657Z 17005KT 18/14 A2999 RMK A01 T01800141  RH  078%=      5-min Rain = 0
KLA1 230658Z 18005KT 18/14 A2999 RMK A01 T01800142  RH  078%=      5-min Rain = 0
KLA1 230659Z 17005KT 18/14 A2999 RMK A01 T01800141  RH  078%=      5-min Rain = 0
KLA1 230700Z 18005KT 18/14 A2999 RMK A01 T01800142  RH  078%=      5-min Rain = 0
KLA1 230701Z 15006KT 18/14 A2999 RMK A01 T01790142  RH  079%=      5-min Rain = 0
KLA1 230702Z 15008KT 18/14 A2999 RMK A01 T01790141  RH  079%=      5-min Rain = 0
KLA1 230703Z 15007KT 18/14 A2999 RMK A01 T01790141  RH  079%=      5-min Rain = 0
KLA1 230704Z 15009KT 18/14 A2998 RMK A01 T01790141  RH  079%=      5-min Rain = 0
KLA1 230705Z 15010KT 18/14 A2998 RMK A01 T01790141  RH  079%=      5-min Rain = 0
KLA1 230706Z 14011KT 18/14 A2998 RMK A01 T01790141  RH  079%=      5-min Rain = 0
KLA1 230707Z 14011KT 18/14 A2998 RMK A01 T01790141  RH  079%=      5-min Rain = 0
KLA1 230708Z 14011KT 18/14 A2998 RMK A01 T01790141  RH  078%=      5-min Rain = 0
KLA1 230709Z 14009KT 18/14 A2998 RMK A01 T01790141  RH  078%=      5-min Rain = 0
KLA1 230710Z 14009KT 18/14 A2998 RMK A01 T01790141  RH  079%=      5-min Rain = 0
KLA1 230711Z 14010KT 18/14 A2998 RMK A01 T01780141  RH  079%=      5-min Rain = 0
KLA1 230712Z 14008KT 18/14 A2998 RMK A01 T01780141  RH  079%=      5-min Rain = 0
KLA1 230713Z 14007KT 18/14 A2998 RMK A01 T01780141  RH  079%=      5-min Rain = 0
KLA1 230714Z 14006KT 18/14 A2998 RMK A01 T01780141  RH  079%=      5-min Rain = 0
KLA1 230715Z 14006KT 18/14 A2998 RMK A01 T01780141  RH  079%=      5-min Rain = 0
KLA1 230716Z 15008KT 18/14 A2998 RMK A01 T01780142  RH  079%=      5-min Rain = 0
KLA1 230717Z 15008KT 18/14 A2998 RMK A01 T01780142  RH  079%=      5-min Rain = 0
KLA1 230718Z 16006KT 18/14 A2998 RMK A01 T01780141  RH  079%=      5-min Rain = 0
KLA1 230719Z 15006KT 18/14 A2998 RMK A01 T01780141  RH  079%=      5-min Rain = 0
KLA1 230720Z 15006KT 18/14 A2998 RMK A01 T01780141  RH  079%=      5-min Rain = 0
KLA1 230721Z 15007KT 18/14 A2998 RMK A01 T01780142  RH  079%=      5-min Rain = 0
KLA1 230722Z 15005KT 18/14 A2999 RMK A01 T01770141  RH  079%=      5-min Rain = 0
KLA1 230723Z 14007KT 18/14 A2999 RMK A01 T01770141  RH  079%=      5-min Rain = 0
KLA1 230724Z 15007KT 18/14 A2999 RMK A01 T01770142  RH  080%=      5-min Rain = 0
KLA1 230725Z 15008KT 18/14 A2999 RMK A01 T01770142  RH  080%=      5-min Rain = 0
KLA1 230726Z 15007KT 18/14 A2998 RMK A01 T01770141  RH  080%=      5-min Rain = 0
KLA1 230727Z 15006KT 18/14 A2998 RMK A01 T01770141  RH  080%=      5-min Rain = 0
KLA1 230728Z 14006KT 18/14 A2998 RMK A01 T01770141  RH  080%=      5-min Rain = 0
KLA1 230729Z 13006KT 18/14 A2998 RMK A01 T01760141  RH  080%=      5-min Rain = 0
KLA1 230730Z 14006KT 18/14 A2998 RMK A01 T01760141  RH  080%=      5-min Rain = 0
KLA1 230731Z 14008KT 18/14 A2998 RMK A01 T01760141  RH  080%=      5-min Rain = 0
KLA1 230732Z 14007KT 18/14 A2999 RMK A01 T01750141  RH  081%=      5-min Rain = 0
KLA1 230733Z 14006KT 18/14 A2999 RMK A01 T01750141  RH  081%=      5-min Rain = 0
KLA1 230734Z 14006KT 18/14 A2999 RMK A01 T01750141  RH  081%=      5-min Rain = 0
KLA1 230735Z 14007KT 17/14 A2999 RMK A01 T01740141  RH  081%=      5-min Rain = 0
KLA1 230736Z 14007KT 17/14 A2999 RMK A01 T01740142  RH  081%=      5-min Rain = 0
KLA1 230737Z 14006KT 17/14 A2999 RMK A01 T01740141  RH  081%=      5-min Rain = 0
KLA1 230738Z 14006KT 17/14 A2999 RMK A01 T01740141  RH  081%=      5-min Rain = 0
KLA1 230739Z 14005KT 17/14 A2999 RMK A01 T01740141  RH  081%=      5-min Rain = 0
KLA1 230740Z 14005KT 17/14 A2999 RMK A01 T01740142  RH  081%=      5-min Rain = 0
KLA1 230741Z 15006KT 17/14 A2999 RMK A01 T01740142  RH  081%=      5-min Rain = 0
KLA1 230742Z 14006KT 17/14 A2999 RMK A01 T01730142  RH  082%=      5-min Rain = 0
KLA1 230743Z 14005KT 17/14 A2999 RMK A01 T01730141  RH  082%=      5-min Rain = 0
KLA1 230744Z 14005KT 17/14 A2999 RMK A01 T01730141  RH  082%=      5-min Rain = 0
KLA1 230745Z 14006KT 17/14 A2999 RMK A01 T01730141  RH  082%=      5-min Rain = 0
KLA1 230746Z 14005KT 17/14 A2999 RMK A01 T01730142  RH  082%=      5-min Rain = 0
KLA1 230747Z 14005KT 17/14 A2999 RMK A01 T01730142  RH  082%=      5-min Rain = 0
KLA1 230748Z 14005KT 17/14 A2999 RMK A01 T01720141  RH  082%=      5-min Rain = 0
KLA1 230749Z 14006KT 17/14 A2999 RMK A01 T01720141  RH  082%=      5-min Rain = 0
KLA1 230750Z 14005KT 17/14 A2999 RMK A01 T01720142  RH  082%=      5-min Rain = 0
KLA1 230751Z 14005KT 17/14 A2999 RMK A01 T01720142  RH  082%=      5-min Rain = 0
KLA1 230752Z 14006KT 17/14 A2999 RMK A01 T01720142  RH  082%=      5-min Rain = 0
KLA1 230753Z 14007KT 17/14 A2999 RMK A01 T01720142  RH  082%=      5-min Rain = 0
KLA1 230754Z 13008KT 17/14 A2999 RMK A01 T01720141  RH  082%=      5-min Rain = 0
KLA1 230755Z 14005KT 17/14 A2999 RMK A01 T01730142  RH  082%=      5-min Rain = 0
KLA1 230756Z 14005KT 17/14 A2999 RMK A01 T01740142  RH  081%=      5-min Rain = 0
KLA1 230757Z 14004KT 17/14 A2999 RMK A01 T01740142  RH  081%=      5-min Rain = 0
KLA1 230758Z 14006KT 17/14 A2999 RMK A01 T01740142  RH  081%=      5-min Rain = 0
KLA1 230759Z 15008KT 17/14 A2999 RMK A01 T01730141  RH  081%=      5-min Rain = 0
KLA1 230800Z 14007KT 17/14 A2999 RMK A01 T01740141  RH  081%=      5-min Rain = 0
KLA1 230801Z 14005KT 17/14 A2999 RMK A01 T01740141  RH  081%=      5-min Rain = 0
KLA1 230802Z 15006KT 17/14 A2999 RMK A01 T01740141  RH  081%=      5-min Rain = 0
KLA1 230803Z 14008KT 17/14 A2999 RMK A01 T01740141  RH  081%=      5-min Rain = 0
KLA1 230804Z 15007KT 17/14 A2999 RMK A01 T01740141  RH  081%=      5-min Rain = 0
KLA1 230805Z 14006KT 17/14 A2999 RMK A01 T01740141  RH  081%=      5-min Rain = 0
KLA1 230806Z 15006KT 18/14 A2999 RMK A01 T01750142  RH  081%=      5-min Rain = 0
KLA1 230807Z 15004KT 17/14 A2999 RMK A01 T01740141  RH  081%=      5-min Rain = 0
KLA1 230808Z 15003KT 17/14 A30 RMK A01 T01740142  RH  081%=      5-min Rain = 0
KLA1 230809Z 15006KT 17/14 A30 RMK A01 T01740142  RH  081%=      5-min Rain = 0
KLA1 230810Z 15007KT 17/14 A30 RMK A01 T01740141  RH  081%=      5-min Rain = 0
KLA1 230811Z 15008KT 17/14 A30 RMK A01 T01740141  RH  081%=      5-min Rain = 0
KLA1 230812Z 15008KT 17/14 A30 RMK A01 T01740141  RH  081%=      5-min Rain = 0
KLA1 230813Z 15009KT 17/14 A2999 RMK A01 T01740141  RH  081%=      5-min Rain = 0
KLA1 230814Z 14010KT 17/14 A2999 RMK A01 T01740141  RH  081%=      5-min Rain = 0
KLA1 230815Z 15010KT 17/14 A2999 RMK A01 T01740141  RH  081%=      5-min Rain = 0
KLA1 230816Z 14009KT 17/14 A30 RMK A01 T01740140  RH  080%=      5-min Rain = 0
KLA1 230817Z 14010KT 17/14 A30 RMK A01 T01740141  RH  081%=      5-min Rain = 0
KLA1 230818Z 14009KT 17/14 A30 RMK A01 T01740140  RH  081%=      5-min Rain = 0
KLA1 230819Z 14007KT 17/14 A30 RMK A01 T01740140  RH  080%=      5-min Rain = 0
KLA1 230820Z 15010G15KT 17/14 A30 RMK A01 T01740140  RH  080%=      5-min Rain = 0
KLA1 230821Z 14013KT 17/14 A30 RMK A01 T01740140  RH  080%=      5-min Rain = 0
KLA1 230822Z 14011KT 18/14 A30 RMK A01 T01750140  RH  080%=      5-min Rain = 0
KLA1 230823Z 15010KT 18/14 A30 RMK A01 T01750140  RH  080%=      5-min Rain = 0
KLA1 230824Z 15010KT 18/14 A30 RMK A01 T01750140  RH  080%=      5-min Rain = 0
KLA1 230825Z 15008KT 18/14 A30 RMK A01 T01750140  RH  080%=      5-min Rain = 0
KLA1 230826Z 14008KT 18/14 A30 RMK A01 T01750140  RH  080%=      5-min Rain = 0
KLA1 230827Z 15008KT 18/14 A30 RMK A01 T01750140  RH  080%=      5-min Rain = 0
KLA1 230828Z 15007G12KT 18/14 A30 RMK A01 T01750140  RH  080%=      5-min Rain = 0
KLA1 230829Z 15008KT 18/14 A30 RMK A01 T01750140  RH  080%=      5-min Rain = 0
KLA1 230830Z 14007KT 18/14 A30 RMK A01 T01750140  RH  080%=      5-min Rain = 0
KLA1 230831Z 14007KT 18/14 A30 RMK A01 T01750140  RH  080%=      5-min Rain = 0
KLA1 230832Z 15010KT 18/14 A30 RMK A01 T01750140  RH  080%=      5-min Rain = 0
KLA1 230833Z 14009KT 18/14 A30 RMK A01 T01750140  RH  080%=      5-min Rain = 0
KLA1 230834Z 15008KT 18/14 A30 RMK A01 T01750140  RH  080%=      5-min Rain = 0
KLA1 230835Z 16008KT 18/14 A30 RMK A01 T01750140  RH  080%=      5-min Rain = 0
KLA1 230836Z 15006KT 18/14 A30 RMK A01 T01750139  RH  080%=      5-min Rain = 0
KLA1 230837Z 15007KT 18/14 A30 RMK A01 T01750140  RH  080%=      5-min Rain = 0
KLA1 230838Z 15008KT 18/14 A30 RMK A01 T01750140  RH  080%=      5-min Rain = 0
KLA1 230839Z 15009KT 18/14 A30 RMK A01 T01750140  RH  080%=      5-min Rain = 0
KLA1 230840Z 15010KT 17/14 A30 RMK A01 T01740140  RH  080%=      5-min Rain = 0
KLA1 230841Z 14011KT 17/14 A30 RMK A01 T01740140  RH  080%=      5-min Rain = 0
KLA1 230842Z 15012KT 17/14 A30 RMK A01 T01740140  RH  080%=      5-min Rain = 0
KLA1 230843Z 15012KT 17/14 A30 RMK A01 T01740139  RH  080%=      5-min Rain = 0
KLA1 230844Z 15009KT 17/14 A30 RMK A01 T01740139  RH  080%=      5-min Rain = 0
KLA1 230845Z 15008KT 17/14 A30 RMK A01 T01740140  RH  080%=      5-min Rain = 0
KLA1 230846Z 14009KT 17/14 A30 RMK A01 T01740139  RH  080%=      5-min Rain = 0
KLA1 230847Z 14008KT 17/14 A30 RMK A01 T01740140  RH  080%=      5-min Rain = 0
KLA1 230848Z 15008KT 17/14 A30 RMK A01 T01730139  RH  081%=      5-min Rain = 0
KLA1 230849Z 15008KT 17/14 A30 RMK A01 T01730140  RH  081%=      5-min Rain = 0
KLA1 230850Z 15010KT 17/14 A30 RMK A01 T01720139  RH  081%=      5-min Rain = 0
KLA1 230851Z 14009KT 17/14 A30 RMK A01 T01730140  RH  081%=      5-min Rain = 0
KLA1 230852Z 14010KT 17/14 A30 RMK A01 T01720140  RH  081%=      5-min Rain = 0
KLA1 230853Z 13008KT 17/14 A30 RMK A01 T01720140  RH  081%=      5-min Rain = 0
KLA1 230854Z 14006KT 17/14 A30 RMK A01 T01720139  RH  081%=      5-min Rain = 0
KLA1 230855Z 14006KT 17/14 A30 RMK A01 T01720140  RH  081%=      5-min Rain = 0
KLA1 230856Z 14007KT 17/14 A30 RMK A01 T01720140  RH  081%=      5-min Rain = 0
KLA1 230857Z 14008KT 17/14 A30 RMK A01 T01720140  RH  081%=      5-min Rain = 0
KLA1 230858Z 14008KT 17/14 A2999 RMK A01 T01720140  RH  081%=      5-min Rain = 0
KLA1 230859Z 14009KT 17/14 A2999 RMK A01 T01720140  RH  081%=      5-min Rain = 0
KLA1 230900Z 15008KT 17/14 A2999 RMK A01 T01720140  RH  082%=      5-min Rain = 0
KLA1 230901Z 14010KT 17/14 A2999 RMK A01 T01720140  RH  081%=      5-min Rain = 0
KLA1 230902Z 14008KT 17/14 A2999 RMK A01 T01720139  RH  081%=      5-min Rain = 0
KLA1 230903Z 15008KT 17/14 A2999 RMK A01 T01720140  RH  081%=      5-min Rain = 0
KLA1 230904Z 14009KT 17/14 A2999 RMK A01 T01720140  RH  081%=      5-min Rain = 0
KLA1 230905Z 15009KT 17/14 A2999 RMK A01 T01720140  RH  081%=      5-min Rain = 0
KLA1 230906Z 13008KT 17/14 A2999 RMK A01 T01720140  RH  081%=      5-min Rain = 0
KLA1 230907Z 13007KT 17/14 A2999 RMK A01 T01720140  RH  081%=      5-min Rain = 0
KLA1 230908Z 12007KT 17/14 A2999 RMK A01 T01720140  RH  081%=      5-min Rain = 0
KLA1 230909Z 14009KT 17/14 A2999 RMK A01 T01720140  RH  081%=      5-min Rain = 0
KLA1 230910Z 13008KT 17/14 A2999 RMK A01 T01720140  RH  081%=      5-min Rain = 0
KLA1 230911Z 14007KT 17/14 A2999 RMK A01 T01720140  RH  082%=      5-min Rain = 0
KLA1 230912Z 13007KT 17/14 A2999 RMK A01 T01720140  RH  082%=      5-min Rain = 0
KLA1 230913Z 13007KT 17/14 A2999 RMK A01 T01720140  RH  082%=      5-min Rain = 0
KLA1 230914Z 14007KT 17/14 A2999 RMK A01 T01720140  RH  082%=      5-min Rain = 0
KLA1 230915Z 15005KT 17/14 A2999 RMK A01 T01720140  RH  082%=      5-min Rain = 0
KLA1 230916Z 14004KT 17/14 A2999 RMK A01 T01720140  RH  082%=      5-min Rain = 0
KLA1 230917Z 13004KT 17/14 A2999 RMK A01 T01720141  RH  082%=      5-min Rain = 0
KLA1 230918Z 14004KT 17/14 A2999 RMK A01 T01720141  RH  082%=      5-min Rain = 0
KLA1 230919Z 15003KT 17/14 A2999 RMK A01 T01720141  RH  082%=      5-min Rain = 0
KLA1 230920Z 15003KT 17/14 A2999 RMK A01 T01720141  RH  082%=      5-min Rain = 0
KLA1 230921Z 17004KT 17/14 A2999 RMK A01 T01720141  RH  082%=      5-min Rain = 0
KLA1 230922Z 14003KT 17/14 A2999 RMK A01 T01720141  RH  082%=      5-min Rain = 0
KLA1 230923Z 14004KT 17/14 A2999 RMK A01 T01710141  RH  082%=      5-min Rain = 0
KLA1 230924Z 14008KT 17/14 A2999 RMK A01 T01720141  RH  082%=      5-min Rain = 0
KLA1 230925Z 15006KT 17/14 A2999 RMK A01 T01720141  RH  082%=      5-min Rain = 0
KLA1 230926Z 15008KT 17/14 A2999 RMK A01 T01710141  RH  082%=      5-min Rain = 0
KLA1 230927Z 14006KT 17/14 A2999 RMK A01 T01710141  RH  082%=      5-min Rain = 0
KLA1 230928Z 14006KT 17/14 A2999 RMK A01 T01710141  RH  082%=      5-min Rain = 0
KLA1 230929Z 14006KT 17/14 A2999 RMK A01 T01710141  RH  083%=      5-min Rain = 0
KLA1 230930Z 14004KT 17/14 A2999 RMK A01 T01720142  RH  082%=      5-min Rain = 0
KLA1 230931Z 14006KT 17/14 A2999 RMK A01 T01710141  RH  083%=      5-min Rain = 0
KLA1 230932Z 14006KT 17/14 A2999 RMK A01 T01720142  RH  083%=      5-min Rain = 0
KLA1 230933Z 15004KT 17/14 A2999 RMK A01 T01710142  RH  083%=      5-min Rain = 0
KLA1 230934Z 15005KT 17/14 A2999 RMK A01 T01720142  RH  083%=      5-min Rain = 0
KLA1 230935Z 14005KT 17/14 A2999 RMK A01 T01720142  RH  083%=      5-min Rain = 0
KLA1 230936Z 14003KT 17/14 A2999 RMK A01 T01710142  RH  083%=      5-min Rain = 0
KLA1 230937Z 14005KT 17/14 A2999 RMK A01 T01710142  RH  083%=      5-min Rain = 0
KLA1 230938Z 14006KT 17/14 A2999 RMK A01 T01710142  RH  083%=      5-min Rain = 0
KLA1 230939Z 14006KT 17/14 A2999 RMK A01 T01710142  RH  083%=      5-min Rain = 0
KLA1 230940Z 14005KT 17/14 A2999 RMK A01 T01710142  RH  083%=      5-min Rain = 0
KLA1 230941Z 14005KT 17/14 A2999 RMK A01 T01710142  RH  083%=      5-min Rain = 0
KLA1 230942Z 13005KT 17/14 A2999 RMK A01 T01710142  RH  083%=      5-min Rain = 0
KLA1 230943Z 14004KT 17/14 A2999 RMK A01 T01710142  RH  083%=      5-min Rain = 0
KLA1 230944Z 14006KT 17/14 A2999 RMK A01 T01710142  RH  083%=      5-min Rain = 0
KLA1 230945Z 14005KT 17/14 A2999 RMK A01 T01710142  RH  083%=      5-min Rain = 0
KLA1 230946Z 16007KT 17/14 A2999 RMK A01 T01710142  RH  083%=      5-min Rain = 0
KLA1 230947Z 16007KT 17/14 A2999 RMK A01 T01710142  RH  083%=      5-min Rain = 0
KLA1 230948Z 17006KT 17/14 A2999 RMK A01 T01710142  RH  083%=      5-min Rain = 0
KLA1 230949Z 16005KT 17/14 A2999 RMK A01 T01720142  RH  083%=      5-min Rain = 0
KLA1 230950Z 16006KT 17/14 A2999 RMK A01 T01720142  RH  083%=      5-min Rain = 0
KLA1 230951Z 15004KT 17/14 A2999 RMK A01 T01720142  RH  083%=      5-min Rain = 0
KLA1 230952Z 16004KT 17/14 A2999 RMK A01 T01720142  RH  083%=      5-min Rain = 0
KLA1 230953Z 16005KT 17/14 A2999 RMK A01 T01720142  RH  083%=      5-min Rain = 0
KLA1 230954Z 15006KT 17/14 A2999 RMK A01 T01720142  RH  083%=      5-min Rain = 0
KLA1 230955Z 15005KT 17/14 A2999 RMK A01 T01720142  RH  083%=      5-min Rain = 0
KLA1 230956Z 15004KT 17/14 A2999 RMK A01 T01710142  RH  083%=      5-min Rain = 0
KLA1 230957Z 15003KT 17/14 A2999 RMK A01 T01710143  RH  083%=      5-min Rain = 0
KLA1 230958Z 15003KT 17/14 A2999 RMK A01 T01710143  RH  083%=      5-min Rain = 0
KLA1 230959Z 15004KT 17/14 A2999 RMK A01 T01710143  RH  083%=      5-min Rain = 0
KLA1 231000Z 15005KT 17/14 A2999 RMK A01 T01710143  RH  084%=      5-min Rain = 0
KLA1 231001Z 15005KT 17/14 A2999 RMK A01 T01700143  RH  084%=      5-min Rain = 0
KLA1 231002Z 15006KT 17/14 A2999 RMK A01 T01710143  RH  084%=      5-min Rain = 0
KLA1 231003Z 15006KT 17/14 A2999 RMK A01 T01710143  RH  084%=      5-min Rain = 0
KLA1 231004Z 15006KT 17/14 A2999 RMK A01 T01710143  RH  084%=      5-min Rain = 0
KLA1 231005Z 15006KT 17/14 A2999 RMK A01 T01710143  RH  084%=      5-min Rain = 0
KLA1 231006Z 14006KT 17/14 A2999 RMK A01 T01700143  RH  084%=      5-min Rain = 0
KLA1 231007Z 13005KT 17/14 A2999 RMK A01 T01710143  RH  084%=      5-min Rain = 0
KLA1 231008Z 14005KT 17/14 A2999 RMK A01 T01710143  RH  084%=      5-min Rain = 0
KLA1 231009Z 14004KT 17/14 A2999 RMK A01 T01700143  RH  084%=      5-min Rain = 0
KLA1 231010Z 14006KT 17/14 A2999 RMK A01 T01710143  RH  084%=      5-min Rain = 0
KLA1 231011Z 14006KT 17/14 A2999 RMK A01 T01710143  RH  084%=      5-min Rain = 0
KLA1 231012Z 13005KT 17/14 A2999 RMK A01 T01700143  RH  084%=      5-min Rain = 0
KLA1 231013Z 13005KT 17/14 A2999 RMK A01 T01710143  RH  084%=      5-min Rain = 0
KLA1 231014Z 13006KT 17/14 A2999 RMK A01 T01700143  RH  084%=      5-min Rain = 0
KLA1 231015Z 13005KT 17/14 A2999 RMK A01 T01700143  RH  084%=      5-min Rain = 0
KLA1 231016Z 14004KT 17/14 A2999 RMK A01 T01700143  RH  084%=      5-min Rain = 0
KLA1 231017Z 13004KT 17/14 A2999 RMK A01 T01700144  RH  084%=      5-min Rain = 0
KLA1 231018Z 13004KT 17/14 A2999 RMK A01 T01700144  RH  085%=      5-min Rain = 0
KLA1 231019Z 13005KT 17/14 A2999 RMK A01 T01700144  RH  085%=      5-min Rain = 0
KLA1 231020Z 13007KT 17/14 A2999 RMK A01 T01690144  RH  085%=      5-min Rain = 0
KLA1 231021Z 14006KT 17/14 A2999 RMK A01 T01690143  RH  085%=      5-min Rain = 0
KLA1 231022Z 13006KT 17/14 A2999 RMK A01 T01690143  RH  085%=      5-min Rain = 0
KLA1 231023Z 13006KT 17/14 A2999 RMK A01 T01690143  RH  085%=      5-min Rain = 0
KLA1 231024Z 13006KT 17/14 A2999 RMK A01 T01690143  RH  085%=      5-min Rain = 0
KLA1 231025Z 12004KT 17/14 A2999 RMK A01 T01690143  RH  085%=      5-min Rain = 0
KLA1 231026Z 11004KT 17/14 A2999 RMK A01 T01690144  RH  085%=      5-min Rain = 0
KLA1 231027Z 12005KT 17/14 A2999 RMK A01 T01690144  RH  085%=      5-min Rain = 0
KLA1 231028Z 13006KT 17/14 A2999 RMK A01 T01690144  RH  085%=      5-min Rain = 0
KLA1 231029Z 13005KT 17/14 A2999 RMK A01 T01690144  RH  085%=      5-min Rain = 0
KLA1 231030Z 12005KT 17/14 A2999 RMK A01 T01690144  RH  085%=      5-min Rain = 0
KLA1 231031Z 12006KT 17/14 A2998 RMK A01 T01690144  RH  085%=      5-min Rain = 0
KLA1 231032Z 12006KT 17/14 A2998 RMK A01 T01690144  RH  085%=      5-min Rain = 0
KLA1 231033Z 12005KT 17/14 A2999 RMK A01 T01680144  RH  086%=      5-min Rain = 0
KLA1 231034Z 12004KT 17/14 A2999 RMK A01 T01680144  RH  086%=      5-min Rain = 0
KLA1 231035Z 13004KT 17/14 A2999 RMK A01 T01680144  RH  086%=      5-min Rain = 0
KLA1 231036Z 13006KT 17/14 A2999 RMK A01 T01680144  RH  086%=      5-min Rain = 0
KLA1 231037Z 12006KT 17/14 A2999 RMK A01 T01680144  RH  086%=      5-min Rain = 0
KLA1 231038Z 13005KT 17/14 A2999 RMK A01 T01680144  RH  086%=      5-min Rain = 0
KLA1 231039Z 13006KT 17/14 A2999 RMK A01 T01680144  RH  086%=      5-min Rain = 0
KLA1 231040Z 13005KT 17/15 A2999 RMK A01 T01680145  RH  086%=      5-min Rain = 0
KLA1 231041Z 12006KT 17/14 A2999 RMK A01 T01680144  RH  086%=      5-min Rain = 0
KLA1 231042Z 12006KT 17/14 A2999 RMK A01 T01680144  RH  086%=      5-min Rain = 0
KLA1 231043Z 12006KT 17/14 A2999 RMK A01 T01680144  RH  086%=      5-min Rain = 0
KLA1 231044Z 12005KT 17/15 A2999 RMK A01 T01680145  RH  086%=      5-min Rain = 0
KLA1 231045Z 13005KT 17/15 A2999 RMK A01 T01680145  RH  086%=      5-min Rain = 0
KLA1 231046Z 13005KT 17/15 A2999 RMK A01 T01680145  RH  086%=      5-min Rain = 0
KLA1 231047Z 13004KT 17/15 A2999 RMK A01 T01670145  RH  086%=      5-min Rain = 0
KLA1 231048Z 12006KT 17/15 A2999 RMK A01 T01670145  RH  086%=      5-min Rain = 0
KLA1 231049Z 12006KT 17/15 A2999 RMK A01 T01670145  RH  087%=      5-min Rain = 0
KLA1 231050Z 12006KT 17/15 A2999 RMK A01 T01670145  RH  087%=      5-min Rain = 0
KLA1 231051Z 12005KT 17/15 A2999 RMK A01 T01670145  RH  087%=      5-min Rain = 0
KLA1 231052Z 13005KT 17/15 A2999 RMK A01 T01670145  RH  087%=      5-min Rain = 0
KLA1 231053Z 13005KT 17/15 A2999 RMK A01 T01670145  RH  087%=      5-min Rain = 0
KLA1 231054Z 12003KT 17/15 A2999 RMK A01 T01670145  RH  087%=      5-min Rain = 0
KLA1 231055Z 13004KT 17/15 A2999 RMK A01 T01670145  RH  087%=      5-min Rain = 0
KLA1 231056Z 12004KT 17/15 A2999 RMK A01 T01670145  RH  087%=      5-min Rain = 0
KLA1 231057Z 13003KT 17/15 A2999 RMK A01 T01670145  RH  087%=      5-min Rain = 0
KLA1 231058Z 13004KT 17/15 A2999 RMK A01 T01670145  RH  087%=      5-min Rain = 0
KLA1 231059Z 12004KT 17/15 A2999 RMK A01 T01670146  RH  087%=      5-min Rain = 0
KLA1 231100Z 13004KT 17/15 A2999 RMK A01 T01670145  RH  087%=      5-min Rain = 0
KLA1 231101Z 13004KT 17/15 A2999 RMK A01 T01670146  RH  087%=      5-min Rain = 0
KLA1 231102Z 13005KT 17/15 A2999 RMK A01 T01670145  RH  087%=      5-min Rain = 0
KLA1 231103Z 13004KT 17/15 A2999 RMK A01 T01660145  RH  087%=      5-min Rain = 0
KLA1 231104Z 13004KT 17/15 A2999 RMK A01 T01660145  RH  087%=      5-min Rain = 0
KLA1 231105Z 13005KT 17/15 A2999 RMK A01 T01670146  RH  087%=      5-min Rain = 0
KLA1 231106Z 13005KT 17/15 A2999 RMK A01 T01660146  RH  088%=      5-min Rain = 0
KLA1 231107Z 14004KT 17/15 A2999 RMK A01 T01660146  RH  088%=      5-min Rain = 0
KLA1 231108Z 14005KT 17/15 A2999 RMK A01 T01660146  RH  088%=      5-min Rain = 0
KLA1 231109Z 14005KT 17/15 A2999 RMK A01 T01670146  RH  088%=      5-min Rain = 0
KLA1 231110Z 13005KT 17/15 A2999 RMK A01 T01660146  RH  088%=      5-min Rain = 0
KLA1 231111Z 13004KT 17/15 A30 RMK A01 T01660146  RH  088%=      5-min Rain = 0
KLA1 231112Z 13004KT 17/15 A30 RMK A01 T01670146  RH  088%=      5-min Rain = 0
KLA1 231113Z 13005KT 17/15 A30 RMK A01 T01670146  RH  088%=      5-min Rain = 0
KLA1 231114Z 14006KT 17/15 A30 RMK A01 T01670146  RH  088%=      5-min Rain = 0
KLA1 231115Z 14005KT 17/15 A30 RMK A01 T01660146  RH  088%=      5-min Rain = 0
KLA1 231116Z 14005KT 17/15 A30 RMK A01 T01660146  RH  088%=      5-min Rain = 0
KLA1 231117Z 13004KT 17/15 A30 RMK A01 T01660146  RH  088%=      5-min Rain = 0
KLA1 231118Z 14005KT 17/15 A30 RMK A01 T01660146  RH  088%=      5-min Rain = 0
KLA1 231119Z 14005KT 17/15 A30 RMK A01 T01660146  RH  088%=      5-min Rain = 0
KLA1 231120Z 15006KT 17/15 A30 RMK A01 T01660146  RH  088%=      5-min Rain = 0
KLA1 231121Z 15005KT 17/15 A30 RMK A01 T01660146  RH  088%=      5-min Rain = 0
KLA1 231122Z 15006KT 17/15 A30 RMK A01 T01660146  RH  088%=      5-min Rain = 0
KLA1 231123Z 15006KT 17/15 A30 RMK A01 T01660146  RH  088%=      5-min Rain = 0
KLA1 231124Z 15006KT 17/15 A30 RMK A01 T01660146  RH  088%=      5-min Rain = 0
KLA1 231125Z 15004KT 17/15 A30 RMK A01 T01660146  RH  088%=      5-min Rain = 0
KLA1 231126Z 15005KT 17/15 A30 RMK A01 T01670146  RH  088%=      5-min Rain = 0
KLA1 231127Z 15005KT 17/15 A30 RMK A01 T01660145  RH  087%=      5-min Rain = 0
KLA1 231128Z 16006KT 17/15 A30 RMK A01 T01670146  RH  087%=      5-min Rain = 0
KLA1 231129Z 16007KT 17/15 A30 RMK A01 T01670146  RH  087%=      5-min Rain = 0
KLA1 231130Z 17007KT 17/15 A30 RMK A01 T01670145  RH  087%=      5-min Rain = 0
KLA1 231131Z 15005KT 17/15 A30 RMK A01 T01680145  RH  086%=      5-min Rain = 0
KLA1 231132Z 15006KT 17/15 A30 RMK A01 T01680145  RH  086%=      5-min Rain = 0
KLA1 231133Z 17006KT 17/15 A30 RMK A01 T01680145  RH  086%=      5-min Rain = 0
KLA1 231134Z 15006KT 17/15 A30 RMK A01 T01680145  RH  086%=      5-min Rain = 0
KLA1 231135Z 15006KT 17/14 A30 RMK A01 T01680144  RH  086%=      5-min Rain = 0
KLA1 231136Z 14005KT 17/15 A30 RMK A01 T01680145  RH  086%=      5-min Rain = 0
KLA1 231137Z 14004KT 17/15 A30 RMK A01 T01680145  RH  086%=      5-min Rain = 0
KLA1 231138Z 15004KT 17/15 A3001 RMK A01 T01680145  RH  086%=      5-min Rain = 0
KLA1 231139Z 14004KT 17/15 A3001 RMK A01 T01680145  RH  087%=      5-min Rain = 0
KLA1 231140Z 15005KT 17/15 A3001 RMK A01 T01680146  RH  087%=      5-min Rain = 0
KLA1 231141Z 15005KT 17/15 A3001 RMK A01 T01670145  RH  087%=      5-min Rain = 0
KLA1 231142Z 14005KT 17/15 A3001 RMK A01 T01670145  RH  087%=      5-min Rain = 0
KLA1 231143Z 14004KT 17/15 A3001 RMK A01 T01670146  RH  087%=      5-min Rain = 0
KLA1 231144Z 14005KT 17/15 A3001 RMK A01 T01670146  RH  087%=      5-min Rain = 0
KLA1 231145Z 14005KT 17/15 A3001 RMK A01 T01670146  RH  087%=      5-min Rain = 0
KLA1 231146Z 15006KT 17/15 A3001 RMK A01 T01670146  RH  087%=      5-min Rain = 0
KLA1 231147Z 15005KT 17/15 A3001 RMK A01 T01670146  RH  087%=      5-min Rain = 0
KLA1 231148Z 14006KT 17/15 A3001 RMK A01 T01670145  RH  087%=      5-min Rain = 0
KLA1 231149Z 16006KT 17/15 A3001 RMK A01 T01670145  RH  087%=      5-min Rain = 0
KLA1 231150Z 14006KT 17/15 A3001 RMK A01 T01670145  RH  087%=      5-min Rain = 0
KLA1 231151Z 15006KT 17/15 A3001 RMK A01 T01670145  RH  087%=      5-min Rain = 0
KLA1 231152Z 15006KT 17/15 A3001 RMK A01 T01670145  RH  087%=      5-min Rain = 0
KLA1 231153Z 14007KT 17/14 A3001 RMK A01 T01660144  RH  087%=      5-min Rain = 0
KLA1 231154Z 14006KT 17/15 A3001 RMK A01 T01670145  RH  087%=      5-min Rain = 0
KLA1 231155Z 14007KT 17/14 A3001 RMK A01 T01660144  RH  087%=      5-min Rain = 0
KLA1 231156Z 14007KT 17/15 A3001 RMK A01 T01660145  RH  087%=      5-min Rain = 0
KLA1 231157Z 13006KT 17/14 A3001 RMK A01 T01660144  RH  087%=      5-min Rain = 0
KLA1 231158Z 14007KT 17/14 A3001 RMK A01 T01660144  RH  087%=      5-min Rain = 0
KLA1 231159Z 14005KT 17/14 A3001 RMK A01 T01660144  RH  087%=      5-min Rain = 0
KLA1 231200Z 14007KT 17/14 A3001 RMK A01 T01650144  RH  087%=      5-min Rain = 0
KLA1 231201Z 14005KT 17/14 A3001 RMK A01 T01650144  RH  088%=      5-min Rain = 0
KLA1 231202Z 14005KT 17/15 A3001 RMK A01 T01650145  RH  088%=      5-min Rain = 0
KLA1 231203Z 14007KT 16/14 A3001 RMK A01 T01640144  RH  088%=      5-min Rain = 0
KLA1 231204Z 14008KT 16/14 A3001 RMK A01 T01640144  RH  088%=      5-min Rain = 0
KLA1 231205Z 14006KT 16/15 A3001 RMK A01 T01640145  RH  089%=      5-min Rain = 0
KLA1 231206Z 14005KT 16/15 A3001 RMK A01 T01630145  RH  089%=      5-min Rain = 0
KLA1 231207Z 13006KT 16/15 A3001 RMK A01 T01630145  RH  089%=      5-min Rain = 0
KLA1 231208Z 14006KT 16/15 A3001 RMK A01 T01630145  RH  089%=      5-min Rain = 0
KLA1 231209Z 13006KT 16/15 A3001 RMK A01 T01630145  RH  089%=      5-min Rain = 0
KLA1 231210Z 12005KT 16/15 A3001 RMK A01 T01620145  RH  089%=      5-min Rain = 0
KLA1 231211Z 12005KT 16/15 A3001 RMK A01 T01620145  RH  090%=      5-min Rain = 0
KLA1 231212Z 13006KT 16/14 A3001 RMK A01 T01610144  RH  090%=      5-min Rain = 0
KLA1 231213Z 13005KT 16/14 A3001 RMK A01 T01600144  RH  090%=      5-min Rain = 0
KLA1 231214Z 13005KT 16/15 A3001 RMK A01 T01600145  RH  091%=      5-min Rain = 0
KLA1 231215Z 13005KT 16/15 A3001 RMK A01 T01590145  RH  091%=      5-min Rain = 0
KLA1 231216Z 13005KT 16/15 A3001 RMK A01 T01590145  RH  091%=      5-min Rain = 0
KLA1 231217Z 13005KT 16/15 A3001 RMK A01 T01590145  RH  092%=      5-min Rain = 0
KLA1 231218Z 12005KT 16/15 A3001 RMK A01 T01580145  RH  092%=      5-min Rain = 0
KLA1 231219Z 13005KT 16/15 A3001 RMK A01 T01580145  RH  092%=      5-min Rain = 0
KLA1 231220Z 13005KT 16/15 A3001 RMK A01 T01570145  RH  092%=      5-min Rain = 0
KLA1 231221Z 14006KT 16/15 A3001 RMK A01 T01570145  RH  093%=      5-min Rain = 0
KLA1 231222Z 13006KT 16/15 A3001 RMK A01 T01570145  RH  093%=      5-min Rain = 0
KLA1 231223Z 13006KT 16/15 A3001 RMK A01 T01570145  RH  092%=      5-min Rain = 0
KLA1 231224Z 13007KT 16/15 A3001 RMK A01 T01570145  RH  093%=      5-min Rain = 0
KLA1 231225Z 13006KT 16/15 A3001 RMK A01 T01560145  RH  093%=      5-min Rain = 0
KLA1 231226Z 13005KT 16/15 A3001 RMK A01 T01560145  RH  093%=      5-min Rain = 0
KLA1 231227Z 12005KT 16/14 A3001 RMK A01 T01560144  RH  093%=      5-min Rain = 0
KLA1 231228Z 12004KT 16/14 A3001 RMK A01 T01550144  RH  093%=      5-min Rain = 0
KLA1 231229Z 12005KT 16/14 A3001 RMK A01 T01550144  RH  093%=      5-min Rain = 0
KLA1 231230Z 12005KT 15/14 A3001 RMK A01 T01540144  RH  093%=      5-min Rain = 0
KLA1 231231Z 11005KT 15/14 A3001 RMK A01 T01540144  RH  094%=      5-min Rain = 0
KLA1 231232Z 11005KT 15/14 A3001 RMK A01 T01540144  RH  094%=      5-min Rain = 0
KLA1 231233Z 12006KT 15/15 A3001 RMK A01 T01540145  RH  095%=      5-min Rain = 0
KLA1 231234Z 12006KT 15/15 A3001 RMK A01 T01540146  RH  095%=      5-min Rain = 0
KLA1 231235Z 12005KT 15/15 A3001 RMK A01 T01530146  RH  095%=      5-min Rain = 0
KLA1 231236Z 12005KT 15/15 A3001 RMK A01 T01540146  RH  095%=      5-min Rain = 0
KLA1 231237Z 12005KT 15/15 A3001 RMK A01 T01540146  RH  095%=      5-min Rain = 0
KLA1 231238Z 12005KT 15/15 A3002 RMK A01 T01530146  RH  095%=      5-min Rain = 0
KLA1 231239Z 12005KT 15/15 A3002 RMK A01 T01520145  RH  096%=      5-min Rain = 0
KLA1 231240Z 12005KT 15/15 A3002 RMK A01 T01530146  RH  096%=      5-min Rain = 0
KLA1 231241Z 12005KT 15/15 A3002 RMK A01 T01530146  RH  096%=      5-min Rain = 0
KLA1 231242Z 12005KT 15/15 A3002 RMK A01 T01530146  RH  096%=      5-min Rain = 0
KLA1 231243Z 12005KT 15/15 A3002 RMK A01 T01530146  RH  096%=      5-min Rain = 0
KLA1 231244Z 12006KT 15/15 A3002 RMK A01 T01520146  RH  096%=      5-min Rain = 0
KLA1 231245Z 12006KT 15/15 A3002 RMK A01 T01520146  RH  096%=      5-min Rain = 0
KLA1 231246Z 12005KT 15/15 A3002 RMK A01 T01520146  RH  096%=      5-min Rain = 0
KLA1 231247Z 12005KT 15/15 A3002 RMK A01 T01520146  RH  096%=      5-min Rain = 0
KLA1 231248Z 12005KT 15/15 A3002 RMK A01 T01530147  RH  096%=      5-min Rain = 0
KLA1 231249Z 12005KT 15/15 A3002 RMK A01 T01530146  RH  096%=      5-min Rain = 0
KLA1 231250Z 12006KT 15/15 A3002 RMK A01 T01520146  RH  096%=      5-min Rain = 0
KLA1 231251Z 12006KT 15/15 A3002 RMK A01 T01520146  RH  096%=      5-min Rain = 0
KLA1 231252Z 11005KT 15/15 A3002 RMK A01 T01510146  RH  097%=      5-min Rain = 0
KLA1 231253Z 12005KT 15/15 A3002 RMK A01 T01510146  RH  097%=      5-min Rain = 0
KLA1 231254Z 12005KT 15/15 A3002 RMK A01 T01510146  RH  097%=      5-min Rain = 0
KLA1 231255Z 12005KT 15/15 A3002 RMK A01 T01510147  RH  097%=      5-min Rain = 0
KLA1 231256Z 11005KT 15/15 A3002 RMK A01 T01510147  RH  097%=      5-min Rain = 0
KLA1 231257Z 12005KT 15/15 A3002 RMK A01 T01510147  RH  097%=      5-min Rain = 0
KLA1 231258Z 12005KT 15/15 A3002 RMK A01 T01510147  RH  097%=      5-min Rain = 0
KLA1 231259Z 12004KT 15/15 A3002 RMK A01 T01510147  RH  098%=      5-min Rain = 0
KLA1 231300Z 13005KT 15/15 A3002 RMK A01 T01510147  RH  098%=      5-min Rain = 0
KLA1 231301Z 12005KT 15/15 A3002 RMK A01 T01510147  RH  098%=      5-min Rain = 0
KLA1 231302Z 12005KT 15/15 A3002 RMK A01 T01510147  RH  098%=      5-min Rain = 0
KLA1 231303Z 12005KT 15/15 A3002 RMK A01 T01510147  RH  098%=      5-min Rain = 0
KLA1 231304Z 12004KT 15/15 A3002 RMK A01 T01510147  RH  098%=      5-min Rain = 0
KLA1 231305Z 13005KT 15/15 A3002 RMK A01 T01510147  RH  098%=      5-min Rain = 0
KLA1 231306Z 12004KT 15/15 A3002 RMK A01 T01510147  RH  098%=      5-min Rain = 0
KLA1 231307Z 12005KT 15/15 A3002 RMK A01 T01510147  RH  098%=      5-min Rain = 0
KLA1 231308Z 12005KT 15/15 A3002 RMK A01 T01510147  RH  098%=      5-min Rain = 0
KLA1 231309Z 11006KT 15/15 A3002 RMK A01 T01510148  RH  098%=      5-min Rain = 0
KLA1 231310Z 11006KT 15/15 A3002 RMK A01 T01510148  RH  098%=      5-min Rain = 0
KLA1 231311Z 12006KT 15/15 A3002 RMK A01 T01510148  RH  098%=      5-min Rain = 0
KLA1 231312Z 11005KT 15/15 A3002 RMK A01 T01510148  RH  098%=      5-min Rain = 0
KLA1 231313Z 12004KT 15/15 A3003 RMK A01 T01510148  RH  098%=      5-min Rain = 0
KLA1 231314Z 14004KT 15/15 A3003 RMK A01 T01510148  RH  098%=      5-min Rain = 0
KLA1 231315Z 13004KT 15/15 A3003 RMK A01 T01510148  RH  098%=      5-min Rain = 0
KLA1 231316Z 12004KT 15/15 A3003 RMK A01 T01510148  RH  098%=      5-min Rain = 0
KLA1 231317Z 13005KT 15/15 A3003 RMK A01 T01510148  RH  098%=      5-min Rain = 0
KLA1 231318Z 13004KT 15/15 A3003 RMK A01 T01510148  RH  098%=      5-min Rain = 0
KLA1 231319Z 13004KT 15/15 A3003 RMK A01 T01510148  RH  098%=      5-min Rain = 0
KLA1 231320Z 13005KT 15/15 A3003 RMK A01 T01510148  RH  098%=      5-min Rain = 0
KLA1 231321Z 12004KT 15/15 A3003 RMK A01 T01510148  RH  098%=      5-min Rain = 0
KLA1 231322Z 13003KT 15/15 A3003 RMK A01 T01520148  RH  098%=      5-min Rain = 0
KLA1 231323Z 12004KT 15/15 A3003 RMK A01 T01520148  RH  098%=      5-min Rain = 0
KLA1 231324Z 12004KT 15/15 A3003 RMK A01 T01520148  RH  098%=      5-min Rain = 0
KLA1 231325Z 12004KT 15/15 A3003 RMK A01 T01520149  RH  098%=      5-min Rain = 0
KLA1 231326Z 12004KT 15/15 A3003 RMK A01 T01520149  RH  098%=      5-min Rain = 0
KLA1 231327Z 13005KT 15/15 A3003 RMK A01 T01520149  RH  098%=      5-min Rain = 0
KLA1 231328Z 13004KT 15/15 A3003 RMK A01 T01520149  RH  098%=      5-min Rain = 0
KLA1 231329Z 13004KT 15/15 A3003 RMK A01 T01520149  RH  098%=      5-min Rain = 0
KLA1 231330Z 13004KT 15/15 A3003 RMK A01 T01530149  RH  098%=      5-min Rain = 0
KLA1 231331Z 14004KT 15/15 A3003 RMK A01 T01530150  RH  098%=      5-min Rain = 0
KLA1 231332Z 14004KT 15/15 A3003 RMK A01 T01530150  RH  098%=      5-min Rain = 0
KLA1 231333Z 14004KT 15/15 A3003 RMK A01 T01530150  RH  098%=      5-min Rain = 0
KLA1 231334Z 14003KT 15/15 A3003 RMK A01 T01540150  RH  098%=      5-min Rain = 0
KLA1 231335Z 14004KT 15/15 A3003 RMK A01 T01540151  RH  098%=      5-min Rain = 0
KLA1 231336Z 13002KT 15/15 A3003 RMK A01 T01540151  RH  098%=      5-min Rain = 0
KLA1 231337Z 13003KT 15/15 A3003 RMK A01 T01540150  RH  097%=      5-min Rain = 0
KLA1 231338Z 13004KT 15/15 A3003 RMK A01 T01540150  RH  097%=      5-min Rain = 0
KLA1 231339Z 15005KT 15/15 A3004 RMK A01 T01540150  RH  097%=      5-min Rain = 0
KLA1 231340Z 16003KT 16/15 A3004 RMK A01 T01550150  RH  097%=      5-min Rain = 0
KLA1 231341Z 15002KT 16/15 A3004 RMK A01 T01560150  RH  096%=      5-min Rain = 0
KLA1 231342Z 16001KT 16/15 A3004 RMK A01 T01560149  RH  096%=      5-min Rain = 0
KLA1 231343Z 14002KT 16/15 A3004 RMK A01 T01570150  RH  096%=      5-min Rain = 0
KLA1 231344Z 15001KT 16/15 A3004 RMK A01 T01570151  RH  096%=      5-min Rain = 0
KLA1 231345Z 15001KT 16/15 A3004 RMK A01 T01570150  RH  096%=      5-min Rain = 0
KLA1 231346Z 16001KT 16/15 A3004 RMK A01 T01570150  RH  096%=      5-min Rain = 0
KLA1 231347Z 16000KT 16/15 A3004 RMK A01 T01580151  RH  096%=      5-min Rain = 0
KLA1 231348Z 16000KT 16/15 A3004 RMK A01 T01570150  RH  096%=      5-min Rain = 0
KLA1 231349Z 19000KT 16/15 A3005 RMK A01 T01580151  RH  096%=      5-min Rain = 0
KLA1 231350Z 00000KT 16/15 A3005 RMK A01 T01580151  RH  096%=      5-min Rain = 0
KLA1 231351Z 00000KT 16/15 A3005 RMK A01 T01580151  RH  095%=      5-min Rain = 0
KLA1 231352Z 21002KT 16/15 A3005 RMK A01 T01590151  RH  095%=      5-min Rain = 0
KLA1 231353Z 20004KT 16/15 A3005 RMK A01 T01590151  RH  095%=      5-min Rain = 0
KLA1 231354Z 19003KT 16/15 A3005 RMK A01 T01590150  RH  094%=      5-min Rain = 0
KLA1 231355Z 20004KT 16/15 A3005 RMK A01 T01600150  RH  094%=      5-min Rain = 0
KLA1 231356Z 21005KT 16/15 A3005 RMK A01 T01610150  RH  093%=      5-min Rain = 0
KLA1 231357Z 21004KT 16/15 A3005 RMK A01 T01610149  RH  092%=      5-min Rain = 0
KLA1 231358Z 21004KT 16/15 A3005 RMK A01 T01620148  RH  092%=      5-min Rain = 0
KLA1 231359Z 21004KT 16/15 A3005 RMK A01 T01610147  RH  091%=      5-min Rain = 0
KLA1 231400Z 22003KT 16/15 A3005 RMK A01 T01620148  RH  091%=      5-min Rain = 0
KLA1 231401Z 22004KT 16/15 A3005 RMK A01 T01620149  RH  092%=      5-min Rain = 0
KLA1 231402Z 19005KT 16/15 A3005 RMK A01 T01630149  RH  092%=      5-min Rain = 0
KLA1 231403Z 20006KT 16/15 A3005 RMK A01 T01630148  RH  091%=      5-min Rain = 0
KLA1 231404Z 21006KT 16/15 A3005 RMK A01 T01630147  RH  090%=      5-min Rain = 0
KLA1 231405Z 23004KT 16/15 A3005 RMK A01 T01630148  RH  091%=      5-min Rain = 0
KLA1 231406Z 24005KT 16/15 A3006 RMK A01 T01640149  RH  091%=      5-min Rain = 0
KLA1 231407Z 21005KT 16/15 A3006 RMK A01 T01640148  RH  090%=      5-min Rain = 0
KLA1 231408Z 20006KT 16/15 A3005 RMK A01 T01640148  RH  091%=      5-min Rain = 0
KLA1 231409Z 20005KT 16/15 A3005 RMK A01 T01640148  RH  090%=      5-min Rain = 0
KLA1 231410Z 21004KT 16/15 A3006 RMK A01 T01640147  RH  090%=      5-min Rain = 0
KLA1 231411Z 22003KT 16/15 A3006 RMK A01 T01640147  RH  090%=      5-min Rain = 0
KLA1 231412Z 21003KT 16/15 A3006 RMK A01 T01640147  RH  090%=      5-min Rain = 0
KLA1 231413Z 19003KT 16/15 A3006 RMK A01 T01640147  RH  090%=      5-min Rain = 0
KLA1 231414Z 20004KT 16/15 A3006 RMK A01 T01640148  RH  090%=      5-min Rain = 0
KLA1 231415Z 21005KT 16/15 A3006 RMK A01 T01630147  RH  090%=      5-min Rain = 0
KLA1 231416Z 20005KT 16/15 A3006 RMK A01 T01630146  RH  090%=      5-min Rain = 0
KLA1 231417Z 22004KT 16/15 A3006 RMK A01 T01630146  RH  090%=      5-min Rain = 0
KLA1 231418Z 22004KT 16/15 A3006 RMK A01 T01630147  RH  090%=      5-min Rain = 0
KLA1 231419Z 20004KT 16/15 A3006 RMK A01 T01630146  RH  090%=      5-min Rain = 0
KLA1 231420Z 19004KT 16/15 A3006 RMK A01 T01630146  RH  090%=      5-min Rain = 0
KLA1 231421Z 19005KT 16/15 A3006 RMK A01 T01630146  RH  090%=      5-min Rain = 0
KLA1 231422Z 19004KT 16/15 A3006 RMK A01 T01630145  RH  089%=      5-min Rain = 0
KLA1 231423Z 20004KT 16/14 A3006 RMK A01 T01630144  RH  089%=      5-min Rain = 0
KLA1 231424Z 19004KT 16/15 A3006 RMK A01 T01630145  RH  089%=      5-min Rain = 0
KLA1 231425Z 18003KT 16/15 A3006 RMK A01 T01640146  RH  089%=      5-min Rain = 0
KLA1 231426Z 18003KT 16/15 A3006 RMK A01 T01640146  RH  089%=      5-min Rain = 0
KLA1 231427Z 17003KT 17/15 A3006 RMK A01 T01650145  RH  088%=      5-min Rain = 0
KLA1 231428Z 18003KT 17/15 A3006 RMK A01 T01650145  RH  088%=      5-min Rain = 0
KLA1 231429Z 18003KT 17/15 A3006 RMK A01 T01660146  RH  088%=      5-min Rain = 0
KLA1 231430Z 18002KT 17/15 A3006 RMK A01 T01660145  RH  087%=      5-min Rain = 0
KLA1 231431Z 20001KT 17/15 A3006 RMK A01 T01670145  RH  087%=      5-min Rain = 0
KLA1 231432Z 17002KT 17/14 A3006 RMK A01 T01670144  RH  086%=      5-min Rain = 0
KLA1 231433Z 18003KT 17/15 A3006 RMK A01 T01670145  RH  086%=      5-min Rain = 0
KLA1 231434Z 18003KT 17/15 A3006 RMK A01 T01680145  RH  086%=      5-min Rain = 0
KLA1 231435Z 17004KT 17/14 A3006 RMK A01 T01690144  RH  085%=      5-min Rain = 0
KLA1 231436Z 16004KT 17/14 A3006 RMK A01 T01700144  RH  085%=      5-min Rain = 0
KLA1 231437Z 16004KT 17/15 A3006 RMK A01 T01710145  RH  085%=      5-min Rain = 0
KLA1 231438Z 15006KT 17/14 A3006 RMK A01 T01710143  RH  084%=      5-min Rain = 0
KLA1 231439Z 15004KT 17/14 A3006 RMK A01 T01710142  RH  083%=      5-min Rain = 0
KLA1 231440Z 15005KT 17/14 A3006 RMK A01 T01720143  RH  083%=      5-min Rain = 0
KLA1 231441Z 16003KT 17/14 A3006 RMK A01 T01730143  RH  083%=      5-min Rain = 0
KLA1 231442Z 17002KT 17/14 A3006 RMK A01 T01740143  RH  082%=      5-min Rain = 0
KLA1 231443Z 15005KT 18/14 A3006 RMK A01 T01750144  RH  082%=      5-min Rain = 0
KLA1 231444Z 16004KT 18/15 A3006 RMK A01 T01770146  RH  082%=      5-min Rain = 0
KLA1 231445Z 15006KT 18/14 A3006 RMK A01 T01770143  RH  080%=      5-min Rain = 0
KLA1 231446Z 15005KT 18/14 A3006 RMK A01 T01750142  RH  081%=      5-min Rain = 0
KLA1 231447Z 14004KT 17/14 A3006 RMK A01 T01740142  RH  082%=      5-min Rain = 0
KLA1 231448Z 14004KT 17/14 A3006 RMK A01 T01740143  RH  082%=      5-min Rain = 0
KLA1 231449Z 15005KT 17/14 A3006 RMK A01 T01730143  RH  082%=      5-min Rain = 0
KLA1 231450Z 15004KT 17/14 A3006 RMK A01 T01730143  RH  083%=      5-min Rain = 0
KLA1 231451Z 15004KT 17/14 A3007 RMK A01 T01740142  RH  082%=      5-min Rain = 0
KLA1 231452Z 14004KT 18/14 A3007 RMK A01 T01750143  RH  081%=      5-min Rain = 0
KLA1 231453Z 14005KT 18/14 A3007 RMK A01 T01760143  RH  081%=      5-min Rain = 0
KLA1 231454Z 14005KT 18/14 A3006 RMK A01 T01780143  RH  080%=      5-min Rain = 0
KLA1 231455Z 13004KT 18/14 A3007 RMK A01 T01790142  RH  079%=      5-min Rain = 0
KLA1 231456Z 15005KT 18/14 A3007 RMK A01 T01790143  RH  079%=      5-min Rain = 0
KLA1 231457Z 17003KT 18/14 A3007 RMK A01 T01810144  RH  079%=      5-min Rain = 0
KLA1 231458Z 15003KT 18/14 A3007 RMK A01 T01820143  RH  078%=      5-min Rain = 0
KLA1 231459Z 14005KT 18/15 A3007 RMK A01 T01830145  RH  078%=      5-min Rain = 0
KLA1 231500Z 18005KT 19/15 A3007 RMK A01 T01850145  RH  077%=      5-min Rain = 0
KLA1 231501Z 16003KT 19/14 A3007 RMK A01 T01850143  RH  076%=      5-min Rain = 0
KLA1 231502Z 15004KT 19/14 A3007 RMK A01 T01850143  RH  076%=      5-min Rain = 0
KLA1 231503Z 16003KT 19/14 A3007 RMK A01 T01850144  RH  077%=      5-min Rain = 0
KLA1 231504Z 19003KT 19/14 A3007 RMK A01 T01860144  RH  076%=      5-min Rain = 0
KLA1 231505Z 22004KT 19/15 A3007 RMK A01 T01870146  RH  077%=      5-min Rain = 0
KLA1 231506Z 23005KT 19/15 A3007 RMK A01 T01860146  RH  077%=      5-min Rain = 0
KLA1 231507Z 24005KT 19/15 A3007 RMK A01 T01860146  RH  078%=      5-min Rain = 0
KLA1 231508Z 22004KT 19/15 A3007 RMK A01 T01850145  RH  078%=      5-min Rain = 0
KLA1 231509Z 24004KT 18/15 A3007 RMK A01 T01840146  RH  079%=      5-min Rain = 0
KLA1 231510Z 25004KT 18/14 A3007 RMK A01 T01830144  RH  078%=      5-min Rain = 0
KLA1 231511Z 25004KT 18/14 A3007 RMK A01 T01820144  RH  079%=      5-min Rain = 0
KLA1 231512Z 25005KT 18/14 A3007 RMK A01 T01810142  RH  078%=      5-min Rain = 0
KLA1 231513Z 23005KT 18/14 A3007 RMK A01 T01800141  RH  078%=      5-min Rain = 0
KLA1 231514Z 23004KT 18/14 A3007 RMK A01 T01800142  RH  078%=      5-min Rain = 0
KLA1 231515Z 24003KT 18/14 A3007 RMK A01 T01800142  RH  078%=      5-min Rain = 0
KLA1 231516Z 23003KT 18/14 A3007 RMK A01 T01820141  RH  077%=      5-min Rain = 0
KLA1 231517Z 23002KT 18/14 A3007 RMK A01 T01830143  RH  078%=      5-min Rain = 0
KLA1 231518Z 23005KT 18/14 A3007 RMK A01 T01840142  RH  077%=      5-min Rain = 0
KLA1 231519Z 23004KT 19/14 A3007 RMK A01 T01850141  RH  076%=      5-min Rain = 0
KLA1 231520Z 23002KT 19/14 A3007 RMK A01 T01850141  RH  076%=      5-min Rain = 0
KLA1 231521Z 26001KT 19/14 A3007 RMK A01 T01860142  RH  075%=      5-min Rain = 0
KLA1 231522Z 24001KT 19/14 A3007 RMK A01 T01860142  RH  075%=      5-min Rain = 0
KLA1 231523Z 25003KT 19/14 A3007 RMK A01 T01870140  RH  074%=      5-min Rain = 0
KLA1 231524Z 24005KT 19/14 A3007 RMK A01 T01880136  RH  072%=      5-min Rain = 0
KLA1 231525Z 26005KT 19/14 A3007 RMK A01 T01900135  RH  070%=      5-min Rain = 0
KLA1 231526Z 28004KT 19/14 A3007 RMK A01 T01910135  RH  070%=      5-min Rain = 0
KLA1 231527Z 29002KT 19/14 A3007 RMK A01 T01910136  RH  071%=      5-min Rain = 0
KLA1 231528Z 24002KT 19/14 A3007 RMK A01 T01910138  RH  071%=      5-min Rain = 0
KLA1 231529Z 24004KT 19/14 A3008 RMK A01 T01910137  RH  071%=      5-min Rain = 0
KLA1 231530Z 23002KT 19/14 A3007 RMK A01 T01910137  RH  071%=      5-min Rain = 0
KLA1 231531Z 22003KT 19/14 A3007 RMK A01 T01900138  RH  071%=      5-min Rain = 0
KLA1 231532Z 24004KT 19/14 A3007 RMK A01 T01910138  RH  071%=      5-min Rain = 0
KLA1 231533Z 26003KT 19/14 A3007 RMK A01 T01920138  RH  071%=      5-min Rain = 0
KLA1 231534Z 24006KT 19/14 A3007 RMK A01 T01920138  RH  071%=      5-min Rain = 0
KLA1 231535Z 25007KT 19/13 A3007 RMK A01 T01930134  RH  069%=      5-min Rain = 0
KLA1 231536Z 24004KT 19/13 A3007 RMK A01 T01930132  RH  067%=      5-min Rain = 0
KLA1 231537Z 26003KT 19/14 A3007 RMK A01 T01930135  RH  069%=      5-min Rain = 0
KLA1 231538Z 29004KT 19/13 A3007 RMK A01 T01940134  RH  068%=      5-min Rain = 0
KLA1 231539Z 26003KT 20/13 A3007 RMK A01 T01950134  RH  068%=      5-min Rain = 0
KLA1 231540Z 24002KT 20/14 A3007 RMK A01 T01950135  RH  068%=      5-min Rain = 0
KLA1 231541Z 29003KT 20/14 A3007 RMK A01 T01950138  RH  069%=      5-min Rain = 0
KLA1 231542Z 29003KT 20/14 A3007 RMK A01 T01970137  RH  068%=      5-min Rain = 0
KLA1 231543Z 20002KT 20/14 A3007 RMK A01 T01980136  RH  067%=      5-min Rain = 0
KLA1 231544Z 23005KT 20/14 A3007 RMK A01 T01980135  RH  067%=      5-min Rain = 0
KLA1 231545Z 26006KT 20/14 A3007 RMK A01 T01990135  RH  066%=      5-min Rain = 0
KLA1 231546Z 25003KT 20/14 A3007 RMK A01 T01980135  RH  067%=      5-min Rain = 0
KLA1 231547Z 23001KT 20/13 A3007 RMK A01 T01960131  RH  066%=      5-min Rain = 0
KLA1 231548Z 25005KT 20/13 A3007 RMK A01 T01970134  RH  067%=      5-min Rain = 0
KLA1 231549Z 23005KT 20/14 A3007 RMK A01 T01970135  RH  067%=      5-min Rain = 0
KLA1 231550Z 23003KT 20/13 A3007 RMK A01 T01970132  RH  066%=      5-min Rain = 0
KLA1 231551Z 24002KT 20/13 A3007 RMK A01 T01970131  RH  066%=      5-min Rain = 0
KLA1 231552Z 24003KT 20/13 A3007 RMK A01 T01970130  RH  065%=      5-min Rain = 0
KLA1 231553Z 26005KT 20/13 A3007 RMK A01 T01980131  RH  066%=      5-min Rain = 0
KLA1 231554Z 26004KT 20/13 A3007 RMK A01 T01970133  RH  067%=      5-min Rain = 0
KLA1 231555Z 25003KT 20/13 A3007 RMK A01 T01960133  RH  067%=      5-min Rain = 0
KLA1 231556Z 29002KT 20/13 A3007 RMK A01 T01960133  RH  067%=      5-min Rain = 0
KLA1 231557Z 29002KT 20/13 A3007 RMK A01 T01970132  RH  066%=      5-min Rain = 0
KLA1 231558Z 25003KT 20/13 A3007 RMK A01 T01990132  RH  065%=      5-min Rain = 0
KLA1 231559Z 25004KT 20/13 A3007 RMK A01 T02010130  RH  064%=      5-min Rain = 0
KLA1 231600Z 26004KT 20/13 A3007 RMK A01 T02020127  RH  062%=      5-min Rain = 0
KLA1 231601Z 25003KT 20/13 A3007 RMK A01 T02030131  RH  063%=      5-min Rain = 0
KLA1 231602Z 24005KT 20/13 A3007 RMK A01 T02040129  RH  062%=      5-min Rain = 0
KLA1 231603Z 25005KT 20/13 A3007 RMK A01 T02040128  RH  062%=      5-min Rain = 0
KLA1 231604Z 25003KT 20/13 A3007 RMK A01 T02030129  RH  063%=      5-min Rain = 0
KLA1 231605Z 25002KT 20/13 A3007 RMK A01 T02010127  RH  062%=      5-min Rain = 0
KLA1 231606Z 20002KT 20/13 A3007 RMK A01 T02010128  RH  063%=      5-min Rain = 0
KLA1 231607Z 21002KT 20/13 A3007 RMK A01 T02010127  RH  062%=      5-min Rain = 0
KLA1 231608Z 25005KT 20/13 A3007 RMK A01 T02010125  RH  061%=      5-min Rain = 0
KLA1 231609Z 25006KT 20/12 A3007 RMK A01 T02020119  RH  059%=      5-min Rain = 0
KLA1 231610Z 24007KT 20/12 A3007 RMK A01 T02020117  RH  058%=      5-min Rain = 0
KLA1 231611Z 24005KT 20/12 A3007 RMK A01 T02020118  RH  058%=      5-min Rain = 0
KLA1 231612Z 24005KT 20/12 A3007 RMK A01 T02040121  RH  059%=      5-min Rain = 0
KLA1 231613Z 24005KT 21/12 A3007 RMK A01 T02050117  RH  057%=      5-min Rain = 0
KLA1 231614Z 23006KT 21/12 A3007 RMK A01 T02050116  RH  057%=      5-min Rain = 0
KLA1 231615Z 24004KT 21/12 A3007 RMK A01 T02060115  RH  056%=      5-min Rain = 0
KLA1 231616Z 23002KT 21/12 A3007 RMK A01 T02060115  RH  056%=      5-min Rain = 0
KLA1 231617Z 22005KT 21/12 A3007 RMK A01 T02060116  RH  056%=      5-min Rain = 0
KLA1 231618Z 26006KT 21/12 A3007 RMK A01 T02070116  RH  056%=      5-min Rain = 0
KLA1 231619Z 26007KT 21/11 A3007 RMK A01 T02070114  RH  055%=      5-min Rain = 0
KLA1 231620Z 25005KT 21/11 A3007 RMK A01 T02070113  RH  055%=      5-min Rain = 0
KLA1 231621Z 24005KT 21/11 A3007 RMK A01 T02070112  RH  055%=      5-min Rain = 0
KLA1 231622Z 25004KT 21/11 A3007 RMK A01 T02070114  RH  055%=      5-min Rain = 0
KLA1 231623Z 29004KT 21/12 A3007 RMK A01 T02070116  RH  056%=      5-min Rain = 0
KLA1 231624Z 34003KT 21/11 A3007 RMK A01 T02080114  RH  055%=      5-min Rain = 0
KLA1 231625Z 35001KT 21/11 A3007 RMK A01 T02080112  RH  054%=      5-min Rain = 0
KLA1 231626Z 00000KT 21/11 A3007 RMK A01 T02090113  RH  054%=      5-min Rain = 0
KLA1 231627Z 30003KT 21/11 A3007 RMK A01 T02110112  RH  053%=      5-min Rain = 0
KLA1 231628Z 32003KT 21/11 A3007 RMK A01 T02120110  RH  052%=      5-min Rain = 0
KLA1 231629Z 30005KT 21/11 A3007 RMK A01 T02120113  RH  053%=      5-min Rain = 0
KLA1 231630Z 29004KT 21/11 A3007 RMK A01 T02140110  RH  052%=      5-min Rain = 0
KLA1 231631Z 27003KT 21/11 A3007 RMK A01 T02140113  RH  052%=      5-min Rain = 0
KLA1 231632Z 25003KT 22/11 A3007 RMK A01 T02150110  RH  051%=      5-min Rain = 0
KLA1 231633Z 23002KT 21/11 A3007 RMK A01 T02140110  RH  052%=      5-min Rain = 0
KLA1 231634Z 22002KT 21/11 A3007 RMK A01 T02140110  RH  051%=      5-min Rain = 0
KLA1 231635Z 22007KT 22/11 A3007 RMK A01 T02150111  RH  051%=      5-min Rain = 0
KLA1 231636Z 26007KT 22/11 A3007 RMK A01 T02170111  RH  051%=      5-min Rain = 0
KLA1 231637Z 26005KT 22/11 A3007 RMK A01 T02170111  RH  051%=      5-min Rain = 0
KLA1 231638Z 25004KT 22/11 A3007 RMK A01 T02160112  RH  052%=      5-min Rain = 0
KLA1 231639Z 25004KT 22/11 A3007 RMK A01 T02160110  RH  051%=      5-min Rain = 0
KLA1 231640Z 21003KT 22/11 A3007 RMK A01 T02150106  RH  050%=      5-min Rain = 0
KLA1 231641Z 25002KT 22/11 A3007 RMK A01 T02150108  RH  050%=      5-min Rain = 0
KLA1 231642Z 25003KT 22/11 A3007 RMK A01 T02170109  RH  050%=      5-min Rain = 0
KLA1 231643Z 23005KT 22/10 A3007 RMK A01 T02200104  RH  048%=      5-min Rain = 0
KLA1 231644Z 25004KT 22/10 A3007 RMK A01 T02190102  RH  047%=      5-min Rain = 0
KLA1 231645Z 28004KT 22/11 A3007 RMK A01 T02200106  RH  048%=      5-min Rain = 0
KLA1 231646Z 32003KT 22/10 A3007 RMK A01 T02200102  RH  047%=      5-min Rain = 0
KLA1 231647Z 35001KT 22/10 A3007 RMK A01 T02200104  RH  047%=      5-min Rain = 0
KLA1 231648Z 22001KT 22/10 A3007 RMK A01 T02210100  RH  046%=      5-min Rain = 0
KLA1 231649Z 22005KT 22/10 A3007 RMK A01 T02210099  RH  046%=      5-min Rain = 0
KLA1 231650Z 21005KT 22/10 A3007 RMK A01 T02210098  RH  046%=      5-min Rain = 0
KLA1 231651Z 22002KT 22/10 A3007 RMK A01 T02200095  RH  045%=      5-min Rain = 0
KLA1 231652Z 20003KT 22/10 A3007 RMK A01 T02190100  RH  047%=      5-min Rain = 0
KLA1 231653Z 23004KT 22/10 A3007 RMK A01 T02210101  RH  046%=      5-min Rain = 0
KLA1 231654Z 26004KT 22/10 A3007 RMK A01 T02230103  RH  047%=      5-min Rain = 0
KLA1 231655Z 25002KT 22/10 A3007 RMK A01 T02230101  RH  046%=      5-min Rain = 0
KLA1 231656Z 25002KT 22/10 A3007 RMK A01 T02220104  RH  047%=      5-min Rain = 0
KLA1 231657Z 22004KT 22/10 A3007 RMK A01 T02220102  RH  046%=      5-min Rain = 0
KLA1 231658Z 21004KT 22/10 A3007 RMK A01 T02210103  RH  047%=      5-min Rain = 0
KLA1 231659Z 19003KT 22/10 A3007 RMK A01 T02210104  RH  048%=      5-min Rain = 0
KLA1 231700Z 18001KT 22/10 A3007 RMK A01 T02210103  RH  047%=      5-min Rain = 0
KLA1 231701Z 17002KT 22/11 A3007 RMK A01 T02220105  RH  048%=      5-min Rain = 0
KLA1 231702Z 21004KT 22/11 A3007 RMK A01 T02230107  RH  048%=      5-min Rain = 0
KLA1 231703Z 20003KT 22/11 A3007 RMK A01 T02240105  RH  047%=      5-min Rain = 0
KLA1 231704Z 19004KT 22/11 A3007 RMK A01 T02240105  RH  047%=      5-min Rain = 0
KLA1 231705Z 18003KT 22/10 A3007 RMK A01 T02240102  RH  046%=      5-min Rain = 0
KLA1 231706Z 19002KT 22/10 A3007 RMK A01 T02230104  RH  047%=      5-min Rain = 0
KLA1 231707Z 20001KT 22/11 A3007 RMK A01 T02240105  RH  047%=      5-min Rain = 0
KLA1 231708Z 13000KT 23/10 A3007 RMK A01 T02250104  RH  046%=      5-min Rain = 0
KLA1 231709Z 00000KT 23/10 A3007 RMK A01 T02250103  RH  046%=      5-min Rain = 0
KLA1 231710Z 25001KT 23/10 A3007 RMK A01 T02270104  RH  046%=      5-min Rain = 0
KLA1 231711Z 22004KT 23/11 A3007 RMK A01 T02290108  RH  046%=      5-min Rain = 0
KLA1 231712Z 23006KT 23/10 A3007 RMK A01 T02310102  RH  044%=      5-min Rain = 0
KLA1 231713Z 22006KT 23/10 A3007 RMK A01 T02310099  RH  043%=      5-min Rain = 0
KLA1 231714Z 19005KT 23/10 A3007 RMK A01 T02300100  RH  044%=      5-min Rain = 0
KLA1 231715Z 22006KT 23/10 A3007 RMK A01 T02300098  RH  043%=      5-min Rain = 0
KLA1 231716Z 23007KT 23/10 A3007 RMK A01 T02320097  RH  042%=      5-min Rain = 0
KLA1 231717Z 23004KT 23/09 A3007 RMK A01 T02340091  RH  040%=      5-min Rain = 0
KLA1 231718Z 23006KT 23/09 A3007 RMK A01 T02320090  RH  040%=      5-min Rain = 0
KLA1 231719Z 24006KT 23/10 A3007 RMK A01 T02310097  RH  042%=      5-min Rain = 0
KLA1 231720Z 24002KT 23/10 A3007 RMK A01 T02310095  RH  042%=      5-min Rain = 0
KLA1 231721Z 21003KT 23/09 A3007 RMK A01 T02300094  RH  042%=      5-min Rain = 0
KLA1 231722Z 19003KT 23/09 A3007 RMK A01 T02290094  RH  042%=      5-min Rain = 0
KLA1 231723Z 17003KT 23/10 A3006 RMK A01 T02290097  RH  043%=      5-min Rain = 0
KLA1 231724Z 19002KT 23/10 A3006 RMK A01 T02290097  RH  043%=      5-min Rain = 0
KLA1 231725Z 21005G10KT 23/10 A3006 RMK A01 T02310095  RH  042%=      5-min Rain = 0
KLA1 231726Z 24005KT 23/09 A3006 RMK A01 T02320090  RH  040%=      5-min Rain = 0
KLA1 231727Z 25006KT 24/09 A3006 RMK A01 T02350094  RH  041%=      5-min Rain = 0
KLA1 231728Z 24007KT 24/09 A3006 RMK A01 T02370088  RH  039%=      5-min Rain = 0
KLA1 231729Z 23006KT 24/08 A3006 RMK A01 T02370081  RH  037%=      5-min Rain = 0
KLA1 231730Z 23007KT 24/09 A3006 RMK A01 T02370085  RH  038%=      5-min Rain = 0
KLA1 231731Z 24007KT 24/08 A3006 RMK A01 T02360083  RH  037%=      5-min Rain = 0
KLA1 231732Z 25004KT 24/08 A3006 RMK A01 T02360082  RH  037%=      5-min Rain = 0
KLA1 231733Z 22004KT 24/08 A3006 RMK A01 T02360083  RH  038%=      5-min Rain = 0
KLA1 231734Z 24003KT 24/08 A3006 RMK A01 T02360077  RH  036%=      5-min Rain = 0
KLA1 231735Z 30004KT 24/08 A3006 RMK A01 T02370083  RH  037%=      5-min Rain = 0
KLA1 231736Z 25004KT 24/08 A3006 RMK A01 T02380083  RH  037%=      5-min Rain = 0
KLA1 231737Z 33002KT 24/09 A3006 RMK A01 T02380087  RH  038%=      5-min Rain = 0
KLA1 231738Z 28002G7KT 24/09 A3006 RMK A01 T02400089  RH  038%=      5-min Rain = 0
KLA1 231739Z 27005KT 24/07 A3006 RMK A01 T02420072  RH  034%=      5-min Rain = 0
KLA1 231740Z 28005KT 24/07 A3006 RMK A01 T02410066  RH  032%=      5-min Rain = 0
KLA1 231741Z 29002KT 24/07 A3006 RMK A01 T02400066  RH  033%=      5-min Rain = 0
KLA1 231742Z 25001KT 24/06 A3006 RMK A01 T02400063  RH  032%=      5-min Rain = 0
KLA1 231743Z 28001KT 24/07 A3006 RMK A01 T02410066  RH  032%=      5-min Rain = 0
KLA1 231744Z 29000KT 24/06 A3006 RMK A01 T02420059  RH  031%=      5-min Rain = 0
KLA1 231745Z 28003KT 24/07 A3006 RMK A01 T02440068  RH  032%=      5-min Rain = 0
KLA1 231746Z 29004KT 25/09 A3005 RMK A01 T02460085  RH  036%=      5-min Rain = 0
KLA1 231747Z 19005KT 25/08 A3005 RMK A01 T02480084  RH  035%=      5-min Rain = 0
KLA1 231748Z 17004KT 25/07 A3005 RMK A01 T02470074  RH  033%=      5-min Rain = 0
KLA1 231749Z 20001KT 25/08 A3005 RMK A01 T02460078  RH  034%=      5-min Rain = 0
KLA1 231750Z 20004KT 25/08 A3005 RMK A01 T02460077  RH  034%=      5-min Rain = 0
KLA1 231751Z 26004KT 25/07 A3005 RMK A01 T02450071  RH  033%=      5-min Rain = 0
KLA1 231752Z 25004KT 25/06 A3005 RMK A01 T02450063  RH  031%=      5-min Rain = 0
KLA1 231753Z 23002KT 25/08 A3005 RMK A01 T02460078  RH  034%=      5-min Rain = 0
KLA1 231754Z 26004KT 25/07 A3005 RMK A01 T02470065  RH  031%=      5-min Rain = 0
KLA1 231755Z 25002KT 25/05 A3005 RMK A01 T02470052  RH  028%=      5-min Rain = 0
KLA1 231756Z 35002KT 25/05 A3005 RMK A01 T02480050  RH  028%=      5-min Rain = 0
KLA1 231757Z 25005G12KT 25/06 A3005 RMK A01 T02470057  RH  029%=      5-min Rain = 0
KLA1 231758Z 23008KT 25/06 A3005 RMK A01 T02480059  RH  030%=      5-min Rain = 0
KLA1 231759Z 24007KT 25/06 A3005 RMK A01 T02490059  RH  030%=      5-min Rain = 0
KLA1 231800Z 25003KT 25/05 A3005 RMK A01 T02490052  RH  028%=      5-min Rain = 0
KLA1 231801Z 25005KT 25/06 A3005 RMK A01 T02480055  RH  029%=      5-min Rain = 0
KLA1 231802Z 22002KT 25/06 A3005 RMK A01 T02450055  RH  029%=      5-min Rain = 0
KLA1 231803Z 25002KT 25/05 A3005 RMK A01 T02450054  RH  029%=      5-min Rain = 0
KLA1 231804Z 26004KT 25/05 A3004 RMK A01 T02460054  RH  029%=      5-min Rain = 0
KLA1 231805Z 26005KT 25/06 A3004 RMK A01 T02470056  RH  029%=      5-min Rain = 0
KLA1 231806Z 28004KT 25/05 A3004 RMK A01 T02470053  RH  029%=      5-min Rain = 0
KLA1 231807Z 30001KT 25/05 A3004 RMK A01 T02480050  RH  028%=      5-min Rain = 0
KLA1 231808Z 33001KT 25/06 A3004 RMK A01 T02510055  RH  028%=      5-min Rain = 0
KLA1 231809Z 29002KT 25/05 A3004 RMK A01 T02520049  RH  027%=      5-min Rain = 0
KLA1 231810Z 24004KT 25/06 A3004 RMK A01 T02530055  RH  028%=      5-min Rain = 0
KLA1 231811Z 28006KT 25/05 A3004 RMK A01 T02540054  RH  028%=      5-min Rain = 0
KLA1 231812Z 30008KT 26/05 A3004 RMK A01 T02570049  RH  026%=      5-min Rain = 0
KLA1 231813Z 29008KT 26/05 A3004 RMK A01 T02580046  RH  026%=      5-min Rain = 0
KLA1 231814Z 27008KT 26/04 A3004 RMK A01 T02590041  RH  025%=      5-min Rain = 0
KLA1 231815Z 29007KT 26/04 A3004 RMK A01 T02590041  RH  025%=      5-min Rain = 0
KLA1 231816Z 30007KT 26/04 A3004 RMK A01 T02590038  RH  024%=      5-min Rain = 0
KLA1 231817Z 30005KT 26/04 A3004 RMK A01 T02590040  RH  024%=      5-min Rain = 0
KLA1 231818Z 33001KT 26/04 A3004 RMK A01 T02600038  RH  024%=      5-min Rain = 0
KLA1 231819Z 27000KT 26/03 A3004 RMK A01 T02600031  RH  023%=      5-min Rain = 0
KLA1 231820Z 30001KT 26/04 A3004 RMK A01 T02610040  RH  024%=      5-min Rain = 0
KLA1 231821Z 28002KT 26/04 A3004 RMK A01 T02620041  RH  024%=      5-min Rain = 0
KLA1 231822Z 30003KT 26/04 A3003 RMK A01 T02630041  RH  024%=      5-min Rain = 0
KLA1 231823Z 28006KT 26/05 A3003 RMK A01 T02620047  RH  025%=      5-min Rain = 0
KLA1 231824Z 29006KT 26/05 A3003 RMK A01 T02620053  RH  026%=      5-min Rain = 0
KLA1 231825Z 30010KT 26/05 A3003 RMK A01 T02630049  RH  025%=      5-min Rain = 0
KLA1 231826Z 32009KT 26/04 A3003 RMK A01 T02620041  RH  024%=      5-min Rain = 0
KLA1 231827Z 34009KT 26/04 A3003 RMK A01 T02600041  RH  024%=      5-min Rain = 0
KLA1 231828Z 29005KT 26/04 A3003 RMK A01 T02580041  RH  025%=      5-min Rain = 0
KLA1 231829Z 25005KT 26/04 A3003 RMK A01 T02570039  RH  025%=      5-min Rain = 0
KLA1 231830Z 22003KT 26/04 A3003 RMK A01 T02550038  RH  025%=      5-min Rain = 0
KLA1 231831Z 18001KT 25/03 A3003 RMK A01 T02540026  RH  023%=      5-min Rain = 0
KLA1 231832Z 21003KT 25/03 A3003 RMK A01 T02530025  RH  023%=      5-min Rain = 0
KLA1 231833Z 25004KT 25/04 A3003 RMK A01 T02540035  RH  024%=      5-min Rain = 0
KLA1 231834Z 26004KT 26/04 A3003 RMK A01 T02550039  RH  025%=      5-min Rain = 0
KLA1 231835Z 25008KT 26/03 A3003 RMK A01 T02560034  RH  024%=      5-min Rain = 0
KLA1 231836Z 25007KT 26/03 A3003 RMK A01 T02570029  RH  023%=      5-min Rain = 0
KLA1 231837Z 22006KT 26/02 A3003 RMK A01 T02610023  RH  021%=      5-min Rain = 0
KLA1 231838Z 21005KT 26/02 A3002 RMK A01 T02620015  RH  020%=      5-min Rain = 0
KLA1 231839Z 23006KT 26/02 A3002 RMK A01 T02620018  RH  020%=      5-min Rain = 0
KLA1 231840Z 21011KT 26/02 A3002 RMK A01 T02610018  RH  021%=      5-min Rain = 0
KLA1 231841Z 21009KT 26/02 A3002 RMK A01 T02610020  RH  021%=      5-min Rain = 0
KLA1 231842Z 18008KT 26/02 A3002 RMK A01 T02610019  RH  021%=      5-min Rain = 0
KLA1 231843Z 20006KT 26/02 A3002 RMK A01 T02600016  RH  020%=      5-min Rain = 0
KLA1 231844Z 19005KT 26/02 A3002 RMK A01 T02590018  RH  021%=      5-min Rain = 0
KLA1 231845Z 22004KT 26/02 A3002 RMK A01 T02590021  RH  021%=      5-min Rain = 0
KLA1 231846Z 24005KT 26/02 A3002 RMK A01 T02610023  RH  021%=      5-min Rain = 0
KLA1 231847Z 24006KT 26/01 A3002 RMK A01 T02620013  RH  020%=      5-min Rain = 0
KLA1 231848Z 24006KT 26/01 A3002 RMK A01 T02610013  RH  020%=      5-min Rain = 0
KLA1 231849Z 26005KT 26/02 A3002 RMK A01 T02600016  RH  020%=      5-min Rain = 0
KLA1 231850Z 23007KT 26/02 A3002 RMK A01 T02600019  RH  021%=      5-min Rain = 0
KLA1 231851Z 22005KT 26/01 A3002 RMK A01 T02610012  RH  020%=      5-min Rain = 0
KLA1 231852Z 21004KT 26/01 A3002 RMK A01 T02610010  RH  019%=      5-min Rain = 0
KLA1 231853Z 23004KT 26/01 A3002 RMK A01 T02610007  RH  019%=      5-min Rain = 0
KLA1 231854Z 20005KT 26/02 A3002 RMK A01 T02610017  RH  020%=      5-min Rain = 0
KLA1 231855Z 20006G13KT 26/01 A3002 RMK A01 T02640010  RH  019%=      5-min Rain = 0
KLA1 231856Z 22010KT 27/00 A3001 RMK A01 T02650002  RH  018%=      5-min Rain = 0
KLA1 231857Z 23009KT 27/00 A3001 RMK A01 T02660000  RH  018%=      5-min Rain = 0
KLA1 231858Z 23011KT 27/01 A3001 RMK A01 T02690008  RH  018%=      5-min Rain = 0
KLA1 231859Z 25010KT 27/01 A3001 RMK A01 T02720009  RH  018%=      5-min Rain = 0
KLA1 231900Z 25009KT 27/01 A3001 RMK A01 T02710006  RH  018%=      5-min Rain = 0
KLA1 231901Z 25007KT 27/00 A3001 RMK A01 T02690003  RH  018%=      5-min Rain = 0
KLA1 231902Z 23006KT 27/M00 A3001 RMK A01 T02651003  RH  017%=      5-min Rain = 0
KLA1 231903Z 25003KT 26/M00 A3001 RMK A01 T02631001  RH  018%=      5-min Rain = 0
KLA1 231904Z 23003KT 26/00 A3001 RMK A01 T02630002  RH  018%=      5-min Rain = 0
KLA1 231905Z 22005KT 26/M00 A3001 RMK A01 T02631003  RH  017%=      5-min Rain = 0
KLA1 231906Z 24006KT 26/00 A3001 RMK A01 T02640000  RH  018%=      5-min Rain = 0
KLA1 231907Z 29006KT 26/00 A3001 RMK A01 T02640003  RH  018%=      5-min Rain = 0
KLA1 231908Z 30011KT 27/01 A3001 RMK A01 T02660006  RH  018%=      5-min Rain = 0
KLA1 231909Z 28010KT 27/00 A3001 RMK A01 T02680002  RH  018%=      5-min Rain = 0
KLA1 231910Z 28007KT 27/M00 A3001 RMK A01 T02671004  RH  017%=      5-min Rain = 0
KLA1 231911Z 30004KT 27/M00 A3001 RMK A01 T02651002  RH  018%=      5-min Rain = 0
KLA1 231912Z 29002KT 26/01 A3001 RMK A01 T02640011  RH  019%=      5-min Rain = 0
KLA1 231913Z 35004KT 27/M00 A30 RMK A01 T02651004  RH  017%=      5-min Rain = 0
KLA1 231914Z 28008KT 26/M00 A30 RMK A01 T02641002  RH  017%=      5-min Rain = 0
KLA1 231915Z 28009KT 27/M01 A30 RMK A01 T02661005  RH  017%=      5-min Rain = 0
KLA1 231916Z 30007KT 27/00 A30 RMK A01 T026700-0  RH  017%=      5-min Rain = 0
KLA1 231917Z 31009KT 27/M01 A30 RMK A01 T02691007  RH  016%=      5-min Rain = 0
KLA1 231918Z 30009KT 27/M01 A30 RMK A01 T02701006  RH  016%=      5-min Rain = 0
KLA1 231919Z 30009KT 27/M01 A30 RMK A01 T02701009  RH  016%=      5-min Rain = 0
KLA1 231920Z 28011KT 27/M00 A30 RMK A01 T02701003  RH  017%=      5-min Rain = 0
KLA1 231921Z 28008KT 27/M00 A30 RMK A01 T02711004  RH  017%=      5-min Rain = 0
KLA1 231922Z 27007KT 27/M01 A30 RMK A01 T02721006  RH  016%=      5-min Rain = 0
KLA1 231923Z 30010KT 27/M00 A30 RMK A01 T02721004  RH  017%=      5-min Rain = 0
KLA1 231924Z 29010KT 27/M01 A30 RMK A01 T02721009  RH  016%=      5-min Rain = 0
KLA1 231925Z 28006KT 27/M01 A30 RMK A01 T02711013  RH  015%=      5-min Rain = 0
KLA1 231926Z 30007KT 27/M01 A30 RMK A01 T02701005  RH  017%=      5-min Rain = 0
KLA1 231927Z 30007KT 27/M01 A30 RMK A01 T02701012  RH  016%=      5-min Rain = 0
KLA1 231928Z 27009KT 27/M01 A30 RMK A01 T02711005  RH  016%=      5-min Rain = 0
KLA1 231929Z 26008KT 27/M02 A30 RMK A01 T02701021  RH  015%=      5-min Rain = 0
KLA1 231930Z 24005KT 27/M02 A30 RMK A01 T02671015  RH  016%=      5-min Rain = 0
KLA1 231931Z 24004KT 27/M01 A30 RMK A01 T02661010  RH  016%=      5-min Rain = 0
KLA1 231932Z 31005KT 27/M01 A30 RMK A01 T02671013  RH  016%=      5-min Rain = 0
KLA1 231933Z 29004KT 27/M01 A30 RMK A01 T02691011  RH  016%=      5-min Rain = 0
KLA1 231934Z 30003KT 27/M02 A30 RMK A01 T02691021  RH  015%=      5-min Rain = 0
KLA1 231935Z 30001KT 27/M02 A30 RMK A01 T02681022  RH  015%=      5-min Rain = 0
KLA1 231936Z 22006KT 27/M02 A2999 RMK A01 T02671016  RH  016%=      5-min Rain = 0
KLA1 231937Z 24007KT 27/M00 A30 RMK A01 T02681002  RH  017%=      5-min Rain = 0
KLA1 231938Z 23008KT 27/M00 A2999 RMK A01 T02711004  RH  017%=      5-min Rain = 0
KLA1 231939Z 23008KT 27/M01 A2999 RMK A01 T02721007  RH  016%=      5-min Rain = 0
KLA1 231940Z 20007KT 27/M02 A2999 RMK A01 T02721017  RH  015%=      5-min Rain = 0
KLA1 231941Z 24008KT 27/M01 A2999 RMK A01 T02701013  RH  016%=      5-min Rain = 0
KLA1 231942Z 21002KT 27/M02 A2999 RMK A01 T02691020  RH  015%=      5-min Rain = 0
KLA1 231943Z 25008KT 27/M02 A2999 RMK A01 T02681016  RH  015%=      5-min Rain = 0
KLA1 231944Z 25011KT 27/M02 A2999 RMK A01 T02691024  RH  014%=      5-min Rain = 0
KLA1 231945Z 25011KT 27/M02 A2999 RMK A01 T02681016  RH  015%=      5-min Rain = 0
KLA1 231946Z 27010KT 27/M01 A2999 RMK A01 T02711008  RH  016%=      5-min Rain = 0
KLA1 231947Z 27013KT 28/M01 A2999 RMK A01 T02751005  RH  016%=      5-min Rain = 0
KLA1 231948Z 26011KT 28/M02 A2999 RMK A01 T02781016  RH  015%=      5-min Rain = 0
KLA1 231949Z 27010KT 28/M01 A2999 RMK A01 T02761013  RH  015%=      5-min Rain = 0
KLA1 231950Z 28012KT 28/M01 A2999 RMK A01 T02761009  RH  016%=      5-min Rain = 0
KLA1 231951Z 29009KT 28/M01 A2999 RMK A01 T02771014  RH  015%=      5-min Rain = 0
KLA1 231952Z 29011KT 28/M01 A2999 RMK A01 T02771013  RH  015%=      5-min Rain = 0
KLA1 231953Z 28008KT 28/M01 A2999 RMK A01 T02781012  RH  015%=      5-min Rain = 0
KLA1 231954Z 29009KT 28/M01 A2999 RMK A01 T02781013  RH  015%=      5-min Rain = 0
KLA1 231955Z 30009KT 28/M02 A2999 RMK A01 T02771018  RH  014%=      5-min Rain = 0
KLA1 231956Z 28009G14KT 28/M01 A2999 RMK A01 T02751014  RH  015%=      5-min Rain = 0
KLA1 231957Z 28012KT 28/M01 A2999 RMK A01 T02751014  RH  015%=      5-min Rain = 0
KLA1 231958Z 28011KT 27/M02 A2999 RMK A01 T02741017  RH  015%=      5-min Rain = 0
KLA1 231959Z 25010KT 27/M02 A2999 RMK A01 T02741016  RH  015%=      5-min Rain = 0
KLA1 232000Z 25011KT 27/M01 A2999 RMK A01 T02731013  RH  015%=      5-min Rain = 0
KLA1 232001Z 24008KT 27/M02 A2999 RMK A01 T02721017  RH  015%=      5-min Rain = 0
KLA1 232002Z 24007KT 27/M02 A2999 RMK A01 T02701020  RH  015%=      5-min Rain = 0
KLA1 232003Z 23007KT 27/M02 A2999 RMK A01 T02681018  RH  015%=      5-min Rain = 0
KLA1 232004Z 25006KT 27/M02 A2999 RMK A01 T02681021  RH  015%=      5-min Rain = 0
KLA1 232005Z 28005KT 27/M03 A2999 RMK A01 T02691025  RH  014%=      5-min Rain = 0
KLA1 232006Z 26003KT 27/M02 A2999 RMK A01 T02691021  RH  015%=      5-min Rain = 0
KLA1 232007Z 26002KT 27/M02 A2999 RMK A01 T02681019  RH  015%=      5-min Rain = 0
KLA1 232008Z 24006G11KT 27/M01 A2999 RMK A01 T02691009  RH  016%=      5-min Rain = 0
KLA1 232009Z 23007KT 27/M02 A2999 RMK A01 T02711015  RH  015%=      5-min Rain = 0
KLA1 232010Z 21004KT 27/M02 A2999 RMK A01 T02721024  RH  014%=      5-min Rain = 0
KLA1 232011Z 18002KT 27/M02 A2999 RMK A01 T02701016  RH  015%=      5-min Rain = 0
KLA1 232012Z 31006KT 27/M01 A2999 RMK A01 T02711009  RH  016%=      5-min Rain = 0
KLA1 232013Z 31008KT 27/M01 A2999 RMK A01 T02741012  RH  015%=      5-min Rain = 0
KLA1 232014Z 28010KT 28/M01 A2999 RMK A01 T02751010  RH  015%=      5-min Rain = 0
KLA1 232015Z 28011KT 28/M02 A2999 RMK A01 T02761015  RH  015%=      5-min Rain = 0
KLA1 232016Z 29008KT 27/M02 A2999 RMK A01 T02741021  RH  014%=      5-min Rain = 0
KLA1 232017Z 31005KT 27/M02 A2999 RMK A01 T02721019  RH  015%=      5-min Rain = 0
KLA1 232018Z 32004KT 27/M02 A2999 RMK A01 T02711017  RH  015%=      5-min Rain = 0
KLA1 232019Z 31003KT 27/M02 A2998 RMK A01 T02711016  RH  015%=      5-min Rain = 0
KLA1 232020Z 32003KT 27/M02 A2998 RMK A01 T02711022  RH  015%=      5-min Rain = 0
KLA1 232021Z 29006KT 27/M01 A2998 RMK A01 T02711014  RH  015%=      5-min Rain = 0
KLA1 232022Z 26004KT 27/M01 A2998 RMK A01 T02731012  RH  015%=      5-min Rain = 0
KLA1 232023Z 28002KT 27/M02 A2998 RMK A01 T02741016  RH  015%=      5-min Rain = 0
KLA1 232024Z 28005G12KT 27/M02 A2998 RMK A01 T02741016  RH  015%=      5-min Rain = 0
KLA1 232025Z 31008KT 27/M01 A2998 RMK A01 T02741013  RH  015%=      5-min Rain = 0
KLA1 232026Z 29009G14KT 28/M02 A2998 RMK A01 T02751016  RH  015%=      5-min Rain = 0
KLA1 232027Z 30010KT 28/M02 A2998 RMK A01 T02761016  RH  015%=      5-min Rain = 0
KLA1 232028Z 29008G13KT 28/M01 A2998 RMK A01 T02751012  RH  015%=      5-min Rain = 0
KLA1 232029Z 28010KT 28/M01 A2998 RMK A01 T02761010  RH  015%=      5-min Rain = 0
KLA1 232030Z 28007KT 28/M01 A2998 RMK A01 T02771012  RH  015%=      5-min Rain = 0
KLA1 232031Z 32005KT 28/M01 A2998 RMK A01 T02781007  RH  016%=      5-min Rain = 0
KLA1 232032Z 31005KT 28/M01 A2998 RMK A01 T02781013  RH  015%=      5-min Rain = 0
KLA1 232033Z 29005KT 28/M02 A2998 RMK A01 T02791016  RH  015%=      5-min Rain = 0
KLA1 232034Z 31007KT 28/M01 A2998 RMK A01 T02781009  RH  015%=      5-min Rain = 0
KLA1 232035Z 30008KT 28/M02 A2998 RMK A01 T02781015  RH  015%=      5-min Rain = 0
KLA1 232036Z 31009KT 28/M02 A2998 RMK A01 T02781019  RH  014%=      5-min Rain = 0
KLA1 232037Z 28006KT 28/M01 A2998 RMK A01 T02761014  RH  015%=      5-min Rain = 0
KLA1 232038Z 27008KT 28/M01 A2998 RMK A01 T02771006  RH  016%=      5-min Rain = 0
KLA1 232039Z 29012KT 28/M00 A2998 RMK A01 T02791004  RH  016%=      5-min Rain = 0
KLA1 232040Z 29012KT 28/M01 A2998 RMK A01 T02811011  RH  015%=      5-min Rain = 0
KLA1 232041Z 30011KT 28/M01 A2998 RMK A01 T02811011  RH  015%=      5-min Rain = 0
KLA1 232042Z 29008KT 28/M01 A2998 RMK A01 T02801012  RH  015%=      5-min Rain = 0
KLA1 232043Z 29006KT 28/M01 A2998 RMK A01 T02791011  RH  015%=      5-min Rain = 0
KLA1 232044Z 28005KT 28/M02 A2997 RMK A01 T02771017  RH  014%=      5-min Rain = 0
KLA1 232045Z 27005KT 28/M01 A2997 RMK A01 T02751007  RH  016%=      5-min Rain = 0
KLA1 232046Z 28008KT 28/M01 A2997 RMK A01 T02761008  RH  016%=      5-min Rain = 0
KLA1 232047Z 25003KT 28/M02 A2997 RMK A01 T02761019  RH  014%=      5-min Rain = 0
KLA1 232048Z 01002KT 27/M02 A2997 RMK A01 T02741017  RH  015%=      5-min Rain = 0
KLA1 232049Z 02001KT 27/M01 A2997 RMK A01 T02741013  RH  015%=      5-min Rain = 0
KLA1 232050Z 26004KT 27/M02 A2997 RMK A01 T02741018  RH  015%=      5-min Rain = 0
KLA1 232051Z 26011KT 28/M01 A2997 RMK A01 T02751010  RH  015%=      5-min Rain = 0
KLA1 232052Z 26013KT 28/M01 A2997 RMK A01 T02781005  RH  016%=      5-min Rain = 0
KLA1 232053Z 27009G14KT 28/M01 A2997 RMK A01 T02801008  RH  015%=      5-min Rain = 0
KLA1 232054Z 28007KT 28/M01 A2997 RMK A01 T02811007  RH  015%=      5-min Rain = 0
KLA1 232055Z 29007KT 28/M00 A2997 RMK A01 T02811002  RH  016%=      5-min Rain = 0
KLA1 232056Z 30009KT 28/M01 A2997 RMK A01 T02831011  RH  015%=      5-min Rain = 0
KLA1 232057Z 28008KT 28/M01 A2997 RMK A01 T02811011  RH  015%=      5-min Rain = 0
KLA1 232058Z 30008KT 28/M01 A2997 RMK A01 T02791008  RH  015%=      5-min Rain = 0
KLA1 232059Z 30006KT 28/M01 A2997 RMK A01 T02791012  RH  015%=      5-min Rain = 0
KLA1 232100Z 29008G14KT 28/M01 A2997 RMK A01 T02771009  RH  015%=      5-min Rain = 0
KLA1 232101Z 28011KT 28/M01 A2997 RMK A01 T02781013  RH  015%=      5-min Rain = 0
KLA1 232102Z 28007KT 28/M01 A2997 RMK A01 T02781013  RH  015%=      5-min Rain = 0
KLA1 232103Z 30006KT 28/M02 A2997 RMK A01 T02771016  RH  015%=      5-min Rain = 0
KLA1 232104Z 29008KT 28/M02 A2997 RMK A01 T02761015  RH  015%=      5-min Rain = 0
KLA1 232105Z 30005KT 28/M02 A2997 RMK A01 T02761015  RH  015%=      5-min Rain = 0
KLA1 232106Z 30003KT 28/M02 A2997 RMK A01 T02761016  RH  015%=      5-min Rain = 0
KLA1 232107Z 30002KT 28/M01 A2996 RMK A01 T02761014  RH  015%=      5-min Rain = 0
KLA1 232108Z 29005KT 28/M02 A2996 RMK A01 T02771016  RH  015%=      5-min Rain = 0
KLA1 232109Z 30006KT 28/M02 A2996 RMK A01 T02781018  RH  014%=      5-min Rain = 0
KLA1 232110Z 33001KT 28/M02 A2996 RMK A01 T02781023  RH  014%=      5-min Rain = 0
KLA1 232111Z 02002KT 28/M01 A2996 RMK A01 T02761009  RH  016%=      5-min Rain = 0
KLA1 232112Z 03002KT 28/M02 A2996 RMK A01 T02771022  RH  014%=      5-min Rain = 0
KLA1 232113Z 05003KT 28/M03 A2996 RMK A01 T02761025  RH  014%=      5-min Rain = 0
KLA1 232114Z 05003KT 27/M02 A2996 RMK A01 T02741020  RH  014%=      5-min Rain = 0
KLA1 232115Z 08003KT 27/M02 A2996 RMK A01 T02731022  RH  014%=      5-min Rain = 0
KLA1 232116Z 08004KT 27/M02 A2996 RMK A01 T02721023  RH  014%=      5-min Rain = 0
KLA1 232117Z 06004KT 27/M01 A2996 RMK A01 T02721006  RH  016%=      5-min Rain = 0
KLA1 232118Z 04004KT 27/M01 A2996 RMK A01 T02731009  RH  016%=      5-min Rain = 0
KLA1 232119Z 06005KT 28/M01 A2996 RMK A01 T02751009  RH  016%=      5-min Rain = 0
KLA1 232120Z 03001KT 28/M02 A2996 RMK A01 T02751020  RH  014%=      5-min Rain = 0
KLA1 232121Z 36001KT 27/M01 A2996 RMK A01 T02741005  RH  016%=      5-min Rain = 0
KLA1 232122Z 29003KT 28/00 A2996 RMK A01 T02770001  RH  017%=      5-min Rain = 0
KLA1 232123Z 28005KT 28/M02 A2996 RMK A01 T02801015  RH  015%=      5-min Rain = 0
KLA1 232124Z 29008KT 28/M01 A2996 RMK A01 T02811010  RH  015%=      5-min Rain = 0
KLA1 232125Z 30008KT 28/M02 A2996 RMK A01 T02821017  RH  014%=      5-min Rain = 0
KLA1 232126Z 29008KT 28/M01 A2996 RMK A01 T02811013  RH  015%=      5-min Rain = 0
KLA1 232127Z 29008KT 28/M01 A2996 RMK A01 T02811014  RH  015%=      5-min Rain = 0
KLA1 232128Z 28006KT 28/M02 A2996 RMK A01 T02811018  RH  014%=      5-min Rain = 0
KLA1 232129Z 29005KT 28/M02 A2996 RMK A01 T02801018  RH  014%=      5-min Rain = 0
KLA1 232130Z 29003KT 28/M02 A2996 RMK A01 T02801017  RH  014%=      5-min Rain = 0
KLA1 232131Z 27002KT 28/M02 A2996 RMK A01 T02791020  RH  014%=      5-min Rain = 0
KLA1 232132Z 27002KT 28/M02 A2996 RMK A01 T02791019  RH  014%=      5-min Rain = 0
KLA1 232133Z 32003KT 28/M02 A2996 RMK A01 T02791017  RH  014%=      5-min Rain = 0
KLA1 232134Z 28000KT 28/M02 A2996 RMK A01 T02781024  RH  014%=      5-min Rain = 0
KLA1 232135Z 19000KT 28/M02 A2996 RMK A01 T02781022  RH  014%=      5-min Rain = 0
KLA1 232136Z 26000KT 28/M02 A2996 RMK A01 T02801021  RH  014%=      5-min Rain = 0
KLA1 232137Z 21006KT 28/M02 A2996 RMK A01 T02811016  RH  014%=      5-min Rain = 0
KLA1 232138Z 20010KT 28/M01 A2996 RMK A01 T02821012  RH  015%=      5-min Rain = 0
KLA1 232139Z 20006KT 28/M01 A2996 RMK A01 T02821014  RH  014%=      5-min Rain = 0
KLA1 232140Z 21006KT 28/M02 A2996 RMK A01 T02821017  RH  014%=      5-min Rain = 0
KLA1 232141Z 18007KT 28/M01 A2996 RMK A01 T02821011  RH  015%=      5-min Rain = 0
KLA1 232142Z 21010KT 28/M01 A2996 RMK A01 T02821012  RH  015%=      5-min Rain = 0
KLA1 232143Z 21011KT 28/M01 A2996 RMK A01 T02831012  RH  015%=      5-min Rain = 0
KLA1 232144Z 19010KT 28/M01 A2996 RMK A01 T02841014  RH  014%=      5-min Rain = 0
KLA1 232145Z 21008KT 28/M01 A2996 RMK A01 T02831011  RH  015%=      5-min Rain = 0
KLA1 232146Z 20006KT 28/M01 A2996 RMK A01 T02831011  RH  015%=      5-min Rain = 0
KLA1 232147Z 20007KT 29/M01 A2996 RMK A01 T02851010  RH  015%=      5-min Rain = 0
KLA1 232148Z 19007KT 29/M01 A2996 RMK A01 T02851014  RH  014%=      5-min Rain = 0
KLA1 232149Z 18007KT 28/M01 A2996 RMK A01 T02831011  RH  015%=      5-min Rain = 0
KLA1 232150Z 17007KT 28/M01 A2996 RMK A01 T02821013  RH  015%=      5-min Rain = 0
KLA1 232151Z 16007KT 28/M01 A2996 RMK A01 T02781014  RH  015%=      5-min Rain = 0
KLA1 232152Z 15006KT 28/M02 A2996 RMK A01 T02761016  RH  015%=      5-min Rain = 0
KLA1 232153Z 14005KT 27/M02 A2996 RMK A01 T02741019  RH  015%=      5-min Rain = 0
KLA1 232154Z 14003KT 27/M01 A2996 RMK A01 T02731012  RH  015%=      5-min Rain = 0
KLA1 232155Z 14003KT 27/M02 A2996 RMK A01 T02731020  RH  015%=      5-min Rain = 0
KLA1 232156Z 15001KT 27/M03 A2996 RMK A01 T02731025  RH  014%=      5-min Rain = 0
KLA1 232157Z 09001KT 27/M02 A2996 RMK A01 T02721020  RH  015%=      5-min Rain = 0
KLA1 232158Z 09002KT 27/M02 A2996 RMK A01 T02721023  RH  014%=      5-min Rain = 0
KLA1 232159Z 09001KT 27/M02 A2996 RMK A01 T02721024  RH  014%=      5-min Rain = 0
KLA1 232200Z 06000KT 27/M02 A2996 RMK A01 T02731018  RH  015%=      5-min Rain = 0
KLA1 232201Z 07000KT 28/M02 A2996 RMK A01 T02761016  RH  015%=      5-min Rain = 0
KLA1 232202Z 17000KT 28/M02 A2996 RMK A01 T02781018  RH  014%=      5-min Rain = 0
KLA1 232203Z 22002KT 28/M02 A2996 RMK A01 T02791023  RH  014%=      5-min Rain = 0
KLA1 232204Z 24004KT 28/M01 A2996 RMK A01 T02791012  RH  015%=      5-min Rain = 0
KLA1 232205Z 22006KT 28/M01 A2996 RMK A01 T02811012  RH  015%=      5-min Rain = 0
KLA1 232206Z 22006KT 28/M02 A2996 RMK A01 T02801019  RH  014%=      5-min Rain = 0
KLA1 232207Z 24008KT 28/M01 A2996 RMK A01 T02791009  RH  015%=      5-min Rain = 0
KLA1 232208Z 23008KT 28/M01 A2996 RMK A01 T02801012  RH  015%=      5-min Rain = 0
KLA1 232209Z 23006KT 28/M01 A2996 RMK A01 T02801012  RH  015%=      5-min Rain = 0
KLA1 232210Z 23005KT 28/M01 A2996 RMK A01 T02801012  RH  015%=      5-min Rain = 0
KLA1 232211Z 25003KT 28/M01 A2996 RMK A01 T02801012  RH  015%=      5-min Rain = 0
KLA1 232212Z 22004KT 28/M01 A2996 RMK A01 T02801014  RH  015%=      5-min Rain = 0
KLA1 232213Z 22002KT 28/M02 A2996 RMK A01 T02801023  RH  014%=      5-min Rain = 0
KLA1 232214Z 15002KT 28/M01 A2996 RMK A01 T02791012  RH  015%=      5-min Rain = 0
KLA1 232215Z 12003KT 28/M01 A2996 RMK A01 T02791013  RH  015%=      5-min Rain = 0
KLA1 232216Z 12004KT 28/M02 A2996 RMK A01 T02781018  RH  014%=      5-min Rain = 0
KLA1 232217Z 12002KT 28/M02 A2996 RMK A01 T02761022  RH  014%=      5-min Rain = 0
KLA1 232218Z 10002KT 27/M02 A2996 RMK A01 T02741021  RH  014%=      5-min Rain = 0
KLA1 232219Z 13002KT 27/M02 A2996 RMK A01 T02731018  RH  015%=      5-min Rain = 0
KLA1 232220Z 18001KT 27/M01 A2996 RMK A01 T02731009  RH  016%=      5-min Rain = 0
KLA1 232221Z 20004KT 28/M01 A2996 RMK A01 T02751009  RH  016%=      5-min Rain = 0
KLA1 232222Z 20007G12KT 28/M00 A2996 RMK A01 T02781001  RH  016%=      5-min Rain = 0
KLA1 232223Z 21006KT 28/M01 A2996 RMK A01 T02811011  RH  015%=      5-min Rain = 0
KLA1 232224Z 21006KT 28/M01 A2996 RMK A01 T02811011  RH  015%=      5-min Rain = 0
KLA1 232225Z 20007KT 28/M01 A2996 RMK A01 T02801011  RH  015%=      5-min Rain = 0
KLA1 232226Z 21007KT 28/M01 A2996 RMK A01 T02801012  RH  015%=      5-min Rain = 0
KLA1 232227Z 20008KT 28/M01 A2996 RMK A01 T02791009  RH  015%=      5-min Rain = 0
KLA1 232228Z 20009KT 28/M01 A2996 RMK A01 T02791013  RH  015%=      5-min Rain = 0
KLA1 232229Z 20008KT 28/M01 A2996 RMK A01 T02771013  RH  015%=      5-min Rain = 0
KLA1 232230Z 20007KT 28/M02 A2996 RMK A01 T02771015  RH  015%=      5-min Rain = 0
KLA1 232231Z 21005KT 28/M01 A2996 RMK A01 T02761013  RH  015%=      5-min Rain = 0
KLA1 232232Z 22005KT 28/M01 A2996 RMK A01 T02771014  RH  015%=      5-min Rain = 0
KLA1 232233Z 24006KT 28/M01 A2996 RMK A01 T02781008  RH  015%=      5-min Rain = 0
KLA1 232234Z 24009KT 28/M01 A2996 RMK A01 T02791005  RH  016%=      5-min Rain = 0
KLA1 232235Z 24007KT 28/00 A2996 RMK A01 T02820002  RH  016%=      5-min Rain = 0
KLA1 232236Z 24006KT 28/M01 A2996 RMK A01 T02831011  RH  015%=      5-min Rain = 0
KLA1 232237Z 22004KT 28/M01 A2996 RMK A01 T02821011  RH  015%=      5-min Rain = 0
KLA1 232238Z 23007KT 28/M00 A2996 RMK A01 T02811004  RH  016%=      5-min Rain = 0
KLA1 232239Z 23005KT 28/M02 A2996 RMK A01 T02821016  RH  014%=      5-min Rain = 0
KLA1 232240Z 25006KT 28/M01 A2996 RMK A01 T02811005  RH  016%=      5-min Rain = 0
KLA1 232241Z 24006KT 28/M00 A2996 RMK A01 T02811002  RH  016%=      5-min Rain = 0
KLA1 232242Z 24009KT 28/M00 A2996 RMK A01 T02821004  RH  016%=      5-min Rain = 0
KLA1 232243Z 24007KT 28/M01 A2996 RMK A01 T02831007  RH  015%=      5-min Rain = 0
KLA1 232244Z 27006KT 28/M01 A2996 RMK A01 T02831006  RH  015%=      5-min Rain = 0
KLA1 232245Z 28003KT 28/M02 A2996 RMK A01 T02821020  RH  014%=      5-min Rain = 0
KLA1 232246Z 29003KT 28/M02 A2996 RMK A01 T02811018  RH  014%=      5-min Rain = 0
KLA1 232247Z 27002KT 28/M01 A2996 RMK A01 T02811012  RH  015%=      5-min Rain = 0
KLA1 232248Z 26003KT 28/M01 A2996 RMK A01 T02821010  RH  015%=      5-min Rain = 0
KLA1 232249Z 25003KT 28/M01 A2996 RMK A01 T02841013  RH  014%=      5-min Rain = 0
KLA1 232250Z 27003KT 28/M01 A2996 RMK A01 T02841014  RH  014%=      5-min Rain = 0
KLA1 232251Z 28002KT 28/M02 A2996 RMK A01 T02841018  RH  014%=      5-min Rain = 0
KLA1 232252Z 28002KT 28/M02 A2996 RMK A01 T02841021  RH  014%=      5-min Rain = 0
KLA1 232253Z 29000KT 28/M02 A2996 RMK A01 T02841022  RH  014%=      5-min Rain = 0
KLA1 232254Z 21001KT 28/M02 A2996 RMK A01 T02831020  RH  014%=      5-min Rain = 0
KLA1 232255Z 23002KT 28/M03 A2996 RMK A01 T02821026  RH  013%=      5-min Rain = 0
KLA1 232256Z 02002KT 28/M02 A2996 RMK A01 T02811024  RH  014%=      5-min Rain = 0
KLA1 232257Z 06002KT 28/M02 A2996 RMK A01 T02781023  RH  014%=      5-min Rain = 0
KLA1 232258Z 15002KT 28/M02 A2996 RMK A01 T02771017  RH  015%=      5-min Rain = 0
KLA1 232259Z 15003KT 28/M02 A2996 RMK A01 T02771020  RH  014%=      5-min Rain = 0
KLA1 232300Z 13003KT 28/M02 A2996 RMK A01 T02771021  RH  014%=      5-min Rain = 0
KLA1 232301Z 14002KT 28/M02 A2996 RMK A01 T02761019  RH  014%=      5-min Rain = 0
KLA1 232302Z 19001KT 28/M01 A2996 RMK A01 T02751012  RH  015%=      5-min Rain = 0
KLA1 232303Z 27007KT 28/M01 A2996 RMK A01 T02771009  RH  015%=      5-min Rain = 0
KLA1 232304Z 28005KT 28/M02 A2996 RMK A01 T02781016  RH  015%=      5-min Rain = 0
KLA1 232305Z 28004KT 28/M01 A2996 RMK A01 T02781014  RH  015%=      5-min Rain = 0
KLA1 232306Z 29004KT 28/M01 A2996 RMK A01 T02791012  RH  015%=      5-min Rain = 0
KLA1 232307Z 30004KT 28/M01 A2996 RMK A01 T02801012  RH  015%=      5-min Rain = 0
KLA1 232308Z 31005KT 28/M02 A2996 RMK A01 T02811015  RH  014%=      5-min Rain = 0
KLA1 232309Z 31005KT 28/M01 A2996 RMK A01 T02801012  RH  015%=      5-min Rain = 0
KLA1 232310Z 32003KT 28/M01 A2996 RMK A01 T02791012  RH  015%=      5-min Rain = 0
KLA1 232311Z 33001KT 28/M02 A2996 RMK A01 T02791016  RH  014%=      5-min Rain = 0
KLA1 232312Z 32001KT 28/M02 A2996 RMK A01 T02791016  RH  015%=      5-min Rain = 0
KLA1 232313Z 30000KT 28/M02 A2996 RMK A01 T02791021  RH  014%=      5-min Rain = 0
KLA1 232314Z 00000KT 28/M02 A2996 RMK A01 T02791021  RH  014%=      5-min Rain = 0
KLA1 232315Z 02001KT 28/M02 A2996 RMK A01 T02801021  RH  014%=      5-min Rain = 0
KLA1 232316Z 02002KT 28/M01 A2996 RMK A01 T02801013  RH  015%=      5-min Rain = 0
KLA1 232317Z 01002KT 28/M01 A2995 RMK A01 T02801005  RH  016%=      5-min Rain = 0
KLA1 232318Z 01002KT 28/M01 A2995 RMK A01 T02801005  RH  016%=      5-min Rain = 0
KLA1 232319Z 02002KT 28/M01 A2995 RMK A01 T02811012  RH  015%=      5-min Rain = 0
KLA1 232320Z 00003KT 28/M01 A2995 RMK A01 T02801007  RH  015%=      5-min Rain = 0
KLA1 232321Z 03002KT 28/M00 A2995 RMK A01 T02791004  RH  016%=      5-min Rain = 0
KLA1 232322Z 01002KT 28/M01 A2995 RMK A01 T02791010  RH  015%=      5-min Rain = 0
KLA1 232323Z 02002KT 28/M02 A2995 RMK A01 T02791015  RH  015%=      5-min Rain = 0
KLA1 232324Z 23000KT 28/M02 A2995 RMK A01 T02791015  RH  015%=      5-min Rain = 0
KLA1 232325Z 24002KT 28/M01 A2995 RMK A01 T02801011  RH  015%=      5-min Rain = 0
KLA1 232326Z 24002KT 28/M01 A2995 RMK A01 T02811014  RH  015%=      5-min Rain = 0
KLA1 232327Z 20002KT 28/M01 A2995 RMK A01 T02811014  RH  015%=      5-min Rain = 0
KLA1 232328Z 18005KT 28/M01 A2995 RMK A01 T02811010  RH  015%=      5-min Rain = 0
KLA1 232329Z 20004KT 28/M01 A2995 RMK A01 T02801006  RH  015%=      5-min Rain = 0
KLA1 232330Z 18002KT 28/M01 A2995 RMK A01 T02801010  RH  015%=      5-min Rain = 0
KLA1 232331Z 19001KT 28/M01 A2995 RMK A01 T02791007  RH  015%=      5-min Rain = 0
KLA1 232332Z 23002KT 28/M01 A2995 RMK A01 T02791009  RH  015%=      5-min Rain = 0
KLA1 232333Z 23003KT 28/M01 A2995 RMK A01 T02801011  RH  015%=      5-min Rain = 0
KLA1 232334Z 21003KT 28/M01 A2995 RMK A01 T02801013  RH  015%=      5-min Rain = 0
KLA1 232335Z 20002KT 28/M01 A2995 RMK A01 T02801012  RH  015%=      5-min Rain = 0
KLA1 232336Z 23003KT 28/M01 A2995 RMK A01 T02791010  RH  015%=      5-min Rain = 0
KLA1 232337Z 27003KT 28/M00 A2995 RMK A01 T02791002  RH  016%=      5-min Rain = 0
KLA1 232338Z 28004KT 28/M01 A2995 RMK A01 T02801006  RH  015%=      5-min Rain = 0
KLA1 232339Z 26005KT 28/M01 A2995 RMK A01 T02811007  RH  015%=      5-min Rain = 0
KLA1 232340Z 25003KT 28/M01 A2995 RMK A01 T02801010  RH  015%=      5-min Rain = 0
KLA1 232341Z 27004KT 28/M01 A2995 RMK A01 T02781006  RH  016%=      5-min Rain = 0
KLA1 232342Z 27004KT 28/M01 A2995 RMK A01 T02781009  RH  015%=      5-min Rain = 0
KLA1 232343Z 29005KT 28/M01 A2995 RMK A01 T02781009  RH  015%=      5-min Rain = 0
KLA1 232344Z 29005KT 28/M01 A2995 RMK A01 T02781010  RH  015%=      5-min Rain = 0
KLA1 232345Z 29003KT 28/M01 A2995 RMK A01 T02781008  RH  015%=      5-min Rain = 0
KLA1 232346Z 30002KT 28/M01 A2995 RMK A01 T02781011  RH  015%=      5-min Rain = 0
KLA1 232347Z 29003KT 28/M01 A2995 RMK A01 T02781005  RH  016%=      5-min Rain = 0
KLA1 232348Z 27002KT 28/M00 A2995 RMK A01 T02781001  RH  016%=      5-min Rain = 0
KLA1 232349Z 29004KT 28/M00 A2995 RMK A01 T02791003  RH  016%=      5-min Rain = 0
KLA1 232350Z 26003KT 28/M01 A2995 RMK A01 T02781007  RH  016%=      5-min Rain = 0
KLA1 232351Z 29004KT 28/M01 A2995 RMK A01 T02771006  RH  016%=      5-min Rain = 0
KLA1 232352Z 29004KT 28/M00 A2995 RMK A01 T02761003  RH  016%=      5-min Rain = 0
KLA1 232353Z 31005KT 27/M01 A2995 RMK A01 T02741008  RH  016%=      5-min Rain = 0
KLA1 232354Z 29003KT 27/M00 A2995 RMK A01 T02731004  RH  016%=      5-min Rain = 0
KLA1 232355Z 30003KT 27/M00 A2995 RMK A01 T02731004  RH  016%=      5-min Rain = 0
KLA1 232356Z 31003KT 27/M00 A2995 RMK A01 T02731002  RH  017%=      5-min Rain = 0
KLA1 232357Z 29002KT 28/00 A2995 RMK A01 T02750001  RH  017%=      5-min Rain = 0
KLA1 232358Z 29003KT 28/M00 A2995 RMK A01 T02761003  RH  016%=      5-min Rain = 0
KLA1 232359Z 29002KT 28/M01 A2995 RMK A01 T02771006  RH  016%=      5-min Rain = 0
KLA1 240000Z 31003KT 28/M00 A2995 RMK A01 T02771003  RH  016%=      5-min Rain = 0
KLA1 240001Z 30005KT 28/00 A2995 RMK A01 T02770002  RH  017%=      5-min Rain = 0
KLA1 240002Z 30004KT 28/00 A2995 RMK A01 T027600-0  RH  017%=      5-min Rain = 0
KLA1 240003Z 30003KT 27/00 A2995 RMK A01 T02740000  RH  017%=      5-min Rain = 0
KLA1 240004Z 27003KT 27/00 A2995 RMK A01 T02720002  RH  017%=      5-min Rain = 0
KLA1 240005Z 25002KT 27/M01 A2995 RMK A01 T02721005  RH  016%=      5-min Rain = 0
KLA1 240006Z 23002KT 27/M00 A2995 RMK A01 T02721002  RH  017%=      5-min Rain = 0
KLA1 240007Z 24002KT 27/00 A2995 RMK A01 T02720004  RH  017%=      5-min Rain = 0
KLA1 240008Z 24002KT 27/01 A2995 RMK A01 T02730009  RH  018%=      5-min Rain = 0
KLA1 240009Z 21004KT 27/01 A2995 RMK A01 T02740010  RH  018%=      5-min Rain = 0
KLA1 240010Z 21004KT 27/01 A2995 RMK A01 T02740006  RH  017%=      5-min Rain = 0
KLA1 240011Z 20004KT 27/01 A2995 RMK A01 T02740008  RH  018%=      5-min Rain = 0
KLA1 240012Z 20004KT 27/01 A2995 RMK A01 T02740008  RH  018%=      5-min Rain = 0
KLA1 240013Z 20003KT 27/01 A2995 RMK A01 T02730007  RH  018%=      5-min Rain = 0
KLA1 240014Z 22003KT 27/01 A2995 RMK A01 T02730008  RH  018%=      5-min Rain = 0
KLA1 240015Z 20003KT 27/01 A2995 RMK A01 T02730012  RH  018%=      5-min Rain = 0
KLA1 240016Z 23003KT 27/01 A2995 RMK A01 T02730009  RH  018%=      5-min Rain = 0
KLA1 240017Z 25003KT 27/00 A2995 RMK A01 T02730004  RH  017%=      5-min Rain = 0
KLA1 240018Z 23002KT 27/M00 A2995 RMK A01 T02731002  RH  017%=      5-min Rain = 0
KLA1 240019Z 23001KT 27/00 A2995 RMK A01 T02730002  RH  017%=      5-min Rain = 0
KLA1 240020Z 24002KT 27/00 A2995 RMK A01 T02740003  RH  017%=      5-min Rain = 0
KLA1 240021Z 23003KT 27/00 A2995 RMK A01 T02740002  RH  017%=      5-min Rain = 0
KLA1 240022Z 25003KT 27/00 A2995 RMK A01 T02740001  RH  017%=      5-min Rain = 0
KLA1 240023Z 33003KT 27/00 A2995 RMK A01 T02730003  RH  017%=      5-min Rain = 0
KLA1 240024Z 00003KT 27/01 A2995 RMK A01 T02710007  RH  018%=      5-min Rain = 0
KLA1 240025Z 01003KT 27/01 A2995 RMK A01 T02690006  RH  018%=      5-min Rain = 0
KLA1 240026Z 02003KT 27/01 A2995 RMK A01 T02670005  RH  018%=      5-min Rain = 0
KLA1 240027Z 00003KT 27/00 A2995 RMK A01 T026500-0  RH  018%=      5-min Rain = 0
KLA1 240028Z 36003KT 26/M00 A2995 RMK A01 T02641001  RH  018%=      5-min Rain = 0
KLA1 240029Z 01003KT 26/M00 A2995 RMK A01 T02621001  RH  018%=      5-min Rain = 0
KLA1 240030Z 01003KT 26/M00 A2995 RMK A01 T02601002  RH  018%=      5-min Rain = 0
KLA1 240031Z 01002KT 26/00 A2995 RMK A01 T02580000  RH  018%=      5-min Rain = 0
KLA1 240032Z 04001KT 26/M01 A2995 RMK A01 T02571008  RH  017%=      5-min Rain = 0
KLA1 240033Z 03000KT 26/M01 A2995 RMK A01 T02571009  RH  017%=      5-min Rain = 0
KLA1 240034Z 36001KT 26/M01 A2995 RMK A01 T02571009  RH  017%=      5-min Rain = 0
KLA1 240035Z 36002KT 26/M01 A2995 RMK A01 T02571008  RH  017%=      5-min Rain = 0
KLA1 240036Z 04001KT 26/M00 A2995 RMK A01 T02571002  RH  018%=      5-min Rain = 0
KLA1 240037Z 04001KT 26/00 A2995 RMK A01 T02560003  RH  019%=      5-min Rain = 0
KLA1 240038Z 16001KT 26/00 A2995 RMK A01 T02550001  RH  019%=      5-min Rain = 0
KLA1 240039Z 15003KT 25/01 A2995 RMK A01 T02540008  RH  020%=      5-min Rain = 0
KLA1 240040Z 15002KT 25/M01 A2995 RMK A01 T02521006  RH  018%=      5-min Rain = 0
KLA1 240041Z 15002KT 25/M01 A2995 RMK A01 T02521007  RH  018%=      5-min Rain = 0
KLA1 240042Z 14002KT 25/M00 A2995 RMK A01 T02531003  RH  019%=      5-min Rain = 0
KLA1 240043Z 14002KT 25/M00 A2995 RMK A01 T02531004  RH  018%=      5-min Rain = 0
KLA1 240044Z 16001KT 25/01 A2995 RMK A01 T02520014  RH  021%=      5-min Rain = 0
KLA1 240045Z 17001KT 25/01 A2995 RMK A01 T02510010  RH  021%=      5-min Rain = 0
KLA1 240046Z 18001KT 25/01 A2995 RMK A01 T02500005  RH  020%=      5-min Rain = 0
KLA1 240047Z 18002KT 25/00 A2995 RMK A01 T02490001  RH  020%=      5-min Rain = 0
KLA1 240048Z 19001KT 25/M00 A2995 RMK A01 T02491001  RH  019%=      5-min Rain = 0
KLA1 240049Z 24002KT 25/M01 A2995 RMK A01 T02491006  RH  019%=      5-min Rain = 0
KLA1 240050Z 24001KT 25/M01 A2995 RMK A01 T02511008  RH  018%=      5-min Rain = 0
KLA1 240051Z 24000KT 25/01 A2995 RMK A01 T02520005  RH  020%=      5-min Rain = 0
KLA1 240052Z 14001KT 25/01 A2995 RMK A01 T02510011  RH  021%=      5-min Rain = 0
KLA1 240053Z 15002KT 25/03 A2995 RMK A01 T02500026  RH  023%=      5-min Rain = 0
KLA1 240054Z 13002KT 25/03 A2995 RMK A01 T02500028  RH  024%=      5-min Rain = 0
KLA1 240055Z 14003KT 25/03 A2995 RMK A01 T02480031  RH  024%=      5-min Rain = 0
KLA1 240056Z 14004KT 25/03 A2995 RMK A01 T02470031  RH  025%=      5-min Rain = 0
KLA1 240057Z 18004KT 24/03 A2995 RMK A01 T02440028  RH  024%=      5-min Rain = 0
KLA1 240058Z 19004KT 24/03 A2995 RMK A01 T02420029  RH  025%=      5-min Rain = 0
KLA1 240059Z 20006KT 24/02 A2995 RMK A01 T02390022  RH  024%=      5-min Rain = 0
KLA1 240100Z 22007KT 24/01 A2995 RMK A01 T02350010  RH  023%=      5-min Rain = 0
KLA1 240101Z 22005KT 23/00 A2995 RMK A01 T023400-0  RH  021%=      5-min Rain = 0
KLA1 240102Z 20007KT 24/01 A2995 RMK A01 T02350013  RH  023%=      5-min Rain = 0
KLA1 240103Z 20007KT 24/03 A2995 RMK A01 T02380029  RH  025%=      5-min Rain = 0
KLA1 240104Z 20006KT 24/04 A2995 RMK A01 T02390037  RH  027%=      5-min Rain = 0
KLA1 240105Z 20005KT 24/04 A2995 RMK A01 T02400039  RH  027%=      5-min Rain = 0
KLA1 240106Z 20005KT 24/04 A2995 RMK A01 T02400039  RH  027%=      5-min Rain = 0
KLA1 240107Z 21004KT 24/04 A2995 RMK A01 T02400037  RH  027%=      5-min Rain = 0
KLA1 240108Z 20004KT 24/03 A2995 RMK A01 T02390034  RH  026%=      5-min Rain = 0
KLA1 240109Z 20004KT 24/03 A2995 RMK A01 T02380033  RH  026%=      5-min Rain = 0
KLA1 240110Z 19003KT 24/04 A2995 RMK A01 T02370035  RH  027%=      5-min Rain = 0
KLA1 240111Z 19003KT 24/04 A2995 RMK A01 T02360042  RH  028%=      5-min Rain = 0
KLA1 240112Z 17003KT 24/05 A2995 RMK A01 T02360045  RH  029%=      5-min Rain = 0
KLA1 240113Z 17002KT 24/05 A2995 RMK A01 T02350048  RH  030%=      5-min Rain = 0
KLA1 240114Z 18003KT 24/05 A2995 RMK A01 T02350048  RH  030%=      5-min Rain = 0
KLA1 240115Z 17003KT 23/05 A2995 RMK A01 T02340050  RH  030%=      5-min Rain = 0
KLA1 240116Z 18003KT 23/05 A2995 RMK A01 T02330054  RH  031%=      5-min Rain = 0
KLA1 240117Z 17003KT 23/06 A2995 RMK A01 T02310057  RH  032%=      5-min Rain = 0
KLA1 240118Z 17003KT 23/06 A2995 RMK A01 T02300059  RH  033%=      5-min Rain = 0
KLA1 240119Z 16003KT 23/06 A2995 RMK A01 T02280060  RH  034%=      5-min Rain = 0
KLA1 240120Z 16003KT 23/06 A2995 RMK A01 T02270062  RH  034%=      5-min Rain = 0
KLA1 240121Z 16003KT 23/06 A2995 RMK A01 T02260064  RH  035%=      5-min Rain = 0
KLA1 240122Z 15003KT 23/07 A2995 RMK A01 T02250065  RH  036%=      5-min Rain = 0
KLA1 240123Z 15003KT 22/07 A2995 RMK A01 T02240067  RH  036%=      5-min Rain = 0
KLA1 240124Z 15004KT 22/07 A2995 RMK A01 T02220068  RH  037%=      5-min Rain = 0
KLA1 240125Z 15003KT 22/07 A2995 RMK A01 T02220068  RH  037%=      5-min Rain = 0
KLA1 240126Z 15004KT 22/07 A2995 RMK A01 T02210068  RH  037%=      5-min Rain = 0
KLA1 240127Z 15003KT 22/07 A2995 RMK A01 T02190067  RH  037%=      5-min Rain = 0
KLA1 240128Z 14003KT 22/07 A2996 RMK A01 T02180066  RH  037%=      5-min Rain = 0
KLA1 240129Z 12002KT 22/06 A2996 RMK A01 T02180063  RH  037%=      5-min Rain = 0
KLA1 240130Z 13002KT 22/06 A2996 RMK A01 T02170062  RH  036%=      5-min Rain = 0
KLA1 240131Z 14003KT 22/06 A2996 RMK A01 T02170063  RH  037%=      5-min Rain = 0
KLA1 240132Z 14002KT 22/06 A2996 RMK A01 T02160064  RH  037%=      5-min Rain = 0
KLA1 240133Z 14003KT 22/07 A2996 RMK A01 T02160066  RH  038%=      5-min Rain = 0
KLA1 240134Z 14002KT 22/07 A2996 RMK A01 T02160066  RH  038%=      5-min Rain = 0
KLA1 240135Z 14003KT 22/07 A2996 RMK A01 T02160065  RH  037%=      5-min Rain = 0
KLA1 240136Z 14003KT 22/07 A2996 RMK A01 T02170065  RH  037%=      5-min Rain = 0
KLA1 240137Z 14003KT 22/07 A2996 RMK A01 T02170066  RH  038%=      5-min Rain = 0
KLA1 240138Z 13003KT 22/07 A2996 RMK A01 T02170066  RH  038%=      5-min Rain = 0
KLA1 240139Z 12003KT 22/07 A2996 RMK A01 T02160066  RH  038%=      5-min Rain = 0
KLA1 240140Z 12003KT 22/07 A2996 RMK A01 T02150066  RH  038%=      5-min Rain = 0
KLA1 240141Z 11003KT 21/07 A2996 RMK A01 T02140067  RH  038%=      5-min Rain = 0
KLA1 240142Z 12003KT 21/07 A2996 RMK A01 T02140067  RH  039%=      5-min Rain = 0
KLA1 240143Z 12003KT 21/07 A2996 RMK A01 T02140067  RH  039%=      5-min Rain = 0
KLA1 240144Z 12003KT 21/07 A2996 RMK A01 T02140068  RH  039%=      5-min Rain = 0
KLA1 240145Z 12003KT 22/07 A2996 RMK A01 T02150068  RH  039%=      5-min Rain = 0
KLA1 240146Z 12005KT 22/07 A2996 RMK A01 T02150068  RH  039%=      5-min Rain = 0
KLA1 240147Z 11006KT 22/07 A2996 RMK A01 T02150069  RH  039%=      5-min Rain = 0
KLA1 240148Z 11007KT 21/07 A2997 RMK A01 T02140069  RH  039%=      5-min Rain = 0
KLA1 240149Z 12007KT 21/07 A2997 RMK A01 T02140070  RH  039%=      5-min Rain = 0
KLA1 240150Z 13007KT 22/07 A2997 RMK A01 T02160070  RH  039%=      5-min Rain = 0
KLA1 240151Z 12007KT 22/07 A2997 RMK A01 T02180071  RH  039%=      5-min Rain = 0
KLA1 240152Z 11008KT 22/07 A2997 RMK A01 T02200071  RH  038%=      5-min Rain = 0
KLA1 240153Z 11007KT 22/07 A2997 RMK A01 T02210072  RH  038%=      5-min Rain = 0
KLA1 240154Z 12008KT 22/07 A2997 RMK A01 T02220072  RH  038%=      5-min Rain = 0
KLA1 240155Z 12006KT 22/07 A2997 RMK A01 T02220074  RH  038%=      5-min Rain = 0
KLA1 240156Z 12007KT 22/07 A2997 RMK A01 T02210074  RH  039%=      5-min Rain = 0
KLA1 240157Z 12007KT 22/07 A2997 RMK A01 T02190074  RH  039%=      5-min Rain = 0
KLA1 240158Z 12007KT 22/08 A2997 RMK A01 T02180075  RH  040%=      5-min Rain = 0
KLA1 240159Z 12006KT 22/08 A2997 RMK A01 T02160075  RH  040%=      5-min Rain = 0
KLA1 240200Z 12006KT 22/08 A2997 RMK A01 T02150076  RH  041%=      5-min Rain = 0
KLA1 240201Z 12007KT 21/08 A2997 RMK A01 T02140076  RH  041%=      5-min Rain = 0
KLA1 240202Z 13006KT 21/08 A2997 RMK A01 T02130077  RH  041%=      5-min Rain = 0
KLA1 240203Z 13007KT 21/08 A2997 RMK A01 T02130078  RH  042%=      5-min Rain = 0
KLA1 240204Z 13006KT 21/08 A2997 RMK A01 T02120078  RH  042%=      5-min Rain = 0
KLA1 240205Z 14007KT 21/08 A2997 RMK A01 T02110079  RH  042%=      5-min Rain = 0
KLA1 240206Z 14006KT 21/08 A2997 RMK A01 T02110079  RH  043%=      5-min Rain = 0
KLA1 240207Z 14007KT 21/08 A2997 RMK A01 T02100080  RH  043%=      5-min Rain = 0
KLA1 240208Z 14006KT 21/08 A2998 RMK A01 T02100080  RH  043%=      5-min Rain = 0
KLA1 240209Z 13006KT 21/08 A2998 RMK A01 T02100081  RH  043%=      5-min Rain = 0
KLA1 240210Z 14006KT 21/08 A2998 RMK A01 T02100082  RH  043%=      5-min Rain = 0
KLA1 240211Z 14008KT 21/08 A2998 RMK A01 T02100082  RH  044%=      5-min Rain = 0
KLA1 240212Z 15007KT 21/08 A2998 RMK A01 T02100082  RH  044%=      5-min Rain = 0
KLA1 240213Z 14008KT 21/08 A2998 RMK A01 T02120084  RH  044%=      5-min Rain = 0
KLA1 240214Z 14009KT 22/09 A2998 RMK A01 T02150085  RH  043%=      5-min Rain = 0
KLA1 240215Z 14007KT 22/09 A2998 RMK A01 T02170085  RH  043%=      5-min Rain = 0
KLA1 240216Z 14006KT 22/09 A2998 RMK A01 T02180085  RH  043%=      5-min Rain = 0
KLA1 240217Z 14006KT 22/09 A2998 RMK A01 T02170085  RH  043%=      5-min Rain = 0
KLA1 240218Z 14008KT 22/09 A2998 RMK A01 T02150085  RH  043%=      5-min Rain = 0
KLA1 240219Z 14009KT 22/09 A2998 RMK A01 T02160086  RH  043%=      5-min Rain = 0
KLA1 240220Z 14008KT 22/09 A2998 RMK A01 T02180087  RH  043%=      5-min Rain = 0
KLA1 240221Z 14008KT 22/09 A2998 RMK A01 T02190087  RH  043%=      5-min Rain = 0
KLA1 240222Z 13007KT 22/09 A2998 RMK A01 T02200087  RH  043%=      5-min Rain = 0
KLA1 240223Z 13006KT 22/09 A2998 RMK A01 T02200087  RH  043%=      5-min Rain = 0
KLA1 240224Z 12006KT 22/09 A2998 RMK A01 T02180087  RH  043%=      5-min Rain = 0
KLA1 240225Z 12006KT 22/09 A2998 RMK A01 T02150086  RH  044%=      5-min Rain = 0
KLA1 240226Z 12006KT 21/09 A2998 RMK A01 T02120086  RH  044%=      5-min Rain = 0
KLA1 240227Z 12006KT 21/09 A2998 RMK A01 T02110086  RH  045%=      5-min Rain = 0
KLA1 240228Z 12007KT 21/09 A2998 RMK A01 T02100086  RH  045%=      5-min Rain = 0
KLA1 240229Z 12006KT 21/09 A2998 RMK A01 T02090087  RH  045%=      5-min Rain = 0
KLA1 240230Z 12005KT 21/09 A2998 RMK A01 T02080087  RH  046%=      5-min Rain = 0
KLA1 240231Z 12006KT 21/09 A2998 RMK A01 T02080087  RH  046%=      5-min Rain = 0
KLA1 240232Z 12006KT 21/09 A2998 RMK A01 T02080086  RH  046%=      5-min Rain = 0
KLA1 240233Z 12007KT 21/09 A2998 RMK A01 T02080087  RH  046%=      5-min Rain = 0
KLA1 240234Z 12006KT 21/09 A2998 RMK A01 T02080087  RH  046%=      5-min Rain = 0
KLA1 240235Z 12007KT 21/09 A2999 RMK A01 T02080087  RH  046%=      5-min Rain = 0
KLA1 240236Z 12006KT 21/09 A2999 RMK A01 T02080088  RH  046%=      5-min Rain = 0
KLA1 240237Z 12006KT 21/09 A2999 RMK A01 T02080088  RH  046%=      5-min Rain = 0
KLA1 240238Z 12006KT 21/09 A2999 RMK A01 T02070088  RH  046%=      5-min Rain = 0
KLA1 240239Z 12006KT 21/09 A2999 RMK A01 T02070088  RH  046%=      5-min Rain = 0
KLA1 240240Z 12006KT 21/09 A2999 RMK A01 T02070088  RH  046%=      5-min Rain = 0
KLA1 240241Z 12007KT 21/09 A2999 RMK A01 T02070088  RH  046%=      5-min Rain = 0
KLA1 240242Z 12006KT 21/09 A2999 RMK A01 T02070088  RH  046%=      5-min Rain = 0
KLA1 240243Z 12006KT 21/09 A2999 RMK A01 T02080088  RH  046%=      5-min Rain = 0
KLA1 240244Z 12006KT 21/09 A2999 RMK A01 T02080089  RH  046%=      5-min Rain = 0
KLA1 240245Z 12007KT 21/09 A2999 RMK A01 T02080088  RH  046%=      5-min Rain = 0
KLA1 240246Z 12007KT 21/09 A2999 RMK A01 T02080089  RH  046%=      5-min Rain = 0
KLA1 240247Z 12007KT 21/09 A2999 RMK A01 T02080090  RH  046%=      5-min Rain = 0
KLA1 240248Z 12006KT 21/09 A2999 RMK A01 T02080090  RH  047%=      5-min Rain = 0
KLA1 240249Z 12006KT 21/09 A2999 RMK A01 T02070090  RH  047%=      5-min Rain = 0
KLA1 240250Z 12007KT 21/09 A30 RMK A01 T02070090  RH  047%=      5-min Rain = 0
KLA1 240251Z 12006KT 21/09 A30 RMK A01 T02070090  RH  047%=      5-min Rain = 0
KLA1 240252Z 13005KT 21/09 A30 RMK A01 T02070091  RH  047%=      5-min Rain = 0
KLA1 240253Z 13006KT 21/09 A30 RMK A01 T02060092  RH  048%=      5-min Rain = 0
KLA1 240254Z 13008KT 21/09 A30 RMK A01 T02050092  RH  048%=      5-min Rain = 0
KLA1 240255Z 13008KT 21/09 A30 RMK A01 T02050093  RH  049%=      5-min Rain = 0
KLA1 240256Z 13007KT 21/09 A30 RMK A01 T02050093  RH  049%=      5-min Rain = 0
KLA1 240257Z 14008KT 21/10 A30 RMK A01 T02050095  RH  049%=      5-min Rain = 0
KLA1 240258Z 15007KT 21/10 A30 RMK A01 T02050095  RH  049%=      5-min Rain = 0
KLA1 240259Z 16010KT 21/10 A30 RMK A01 T02050096  RH  050%=      5-min Rain = 0
KLA1 240300Z 15007KT 21/10 A30 RMK A01 T02070098  RH  049%=      5-min Rain = 0
KLA1 240301Z 15008KT 21/10 A30 RMK A01 T02080099  RH  050%=      5-min Rain = 0
KLA1 240302Z 15009KT 21/10 A30 RMK A01 T02080101  RH  050%=      5-min Rain = 0
KLA1 240303Z 15010KT 21/10 A30 RMK A01 T02100103  RH  050%=      5-min Rain = 0
KLA1 240304Z 16009KT 21/10 A30 RMK A01 T02120104  RH  050%=      5-min Rain = 0
KLA1 240305Z 15009KT 21/11 A30 RMK A01 T02130105  RH  050%=      5-min Rain = 0
KLA1 240306Z 15011KT 21/11 A30 RMK A01 T02140106  RH  050%=      5-min Rain = 0
KLA1 240307Z 16009KT 22/11 A30 RMK A01 T02150106  RH  050%=      5-min Rain = 0
KLA1 240308Z 15011KT 22/11 A30 RMK A01 T02150107  RH  050%=      5-min Rain = 0
KLA1 240309Z 15011KT 22/11 A30 RMK A01 T02150109  RH  051%=      5-min Rain = 0
KLA1 240310Z 15011KT 22/11 A30 RMK A01 T02150110  RH  051%=      5-min Rain = 0
KLA1 240311Z 15010KT 22/11 A30 RMK A01 T02160110  RH  051%=      5-min Rain = 0
KLA1 240312Z 15010KT 22/11 A3001 RMK A01 T02160110  RH  051%=      5-min Rain = 0
KLA1 240313Z 15009KT 22/11 A3001 RMK A01 T02150110  RH  051%=      5-min Rain = 0
KLA1 240314Z 13006KT 22/11 A3001 RMK A01 T02150110  RH  051%=      5-min Rain = 0
KLA1 240315Z 13006KT 21/11 A3001 RMK A01 T02130108  RH  051%=      5-min Rain = 0
KLA1 240316Z 14005KT 21/11 A3001 RMK A01 T02100106  RH  051%=      5-min Rain = 0
KLA1 240317Z 12007KT 21/11 A3001 RMK A01 T02080105  RH  052%=      5-min Rain = 0
KLA1 240318Z 13006KT 21/11 A3001 RMK A01 T02060105  RH  052%=      5-min Rain = 0
KLA1 240319Z 13007KT 21/11 A3001 RMK A01 T02050105  RH  053%=      5-min Rain = 0
KLA1 240320Z 13007KT 20/11 A3001 RMK A01 T02040106  RH  053%=      5-min Rain = 0
KLA1 240321Z 14007KT 20/11 A3002 RMK A01 T02030106  RH  054%=      5-min Rain = 0
KLA1 240322Z 14010KT 20/11 A3002 RMK A01 T02020108  RH  055%=      5-min Rain = 0
KLA1 240323Z 16012KT 20/11 A3002 RMK A01 T02040112  RH  056%=      5-min Rain = 0
KLA1 240324Z 15009KT 21/12 A3002 RMK A01 T02060115  RH  056%=      5-min Rain = 0
KLA1 240325Z 15011KT 21/12 A3002 RMK A01 T02070116  RH  056%=      5-min Rain = 0
KLA1 240326Z 15011KT 21/12 A3002 RMK A01 T02080119  RH  057%=      5-min Rain = 0
KLA1 240327Z 13010KT 21/12 A3002 RMK A01 T02090119  RH  056%=      5-min Rain = 0
KLA1 240328Z 14010KT 21/12 A3002 RMK A01 T02100119  RH  056%=      5-min Rain = 0
KLA1 240329Z 15010KT 21/12 A3002 RMK A01 T02100122  RH  057%=      5-min Rain = 0
KLA1 240330Z 15011KT 21/12 A3002 RMK A01 T02090123  RH  058%=      5-min Rain = 0
KLA1 240331Z 15009KT 21/13 A3002 RMK A01 T02090126  RH  059%=      5-min Rain = 0
KLA1 240332Z 14010KT 21/12 A3002 RMK A01 T02090124  RH  058%=      5-min Rain = 0
KLA1 240333Z 14010KT 21/12 A3002 RMK A01 T02090124  RH  059%=      5-min Rain = 0
KLA1 240334Z 14009G15KT 21/13 A3002 RMK A01 T02070125  RH  059%=      5-min Rain = 0
KLA1 240335Z 14012KT 21/13 A3002 RMK A01 T02070128  RH  060%=      5-min Rain = 0
KLA1 240336Z 16009G14KT 21/13 A3002 RMK A01 T02070130  RH  061%=      5-min Rain = 0
KLA1 240337Z 16010KT 21/13 A3002 RMK A01 T02070131  RH  061%=      5-min Rain = 0
KLA1 240338Z 16008KT 21/13 A3003 RMK A01 T02070131  RH  062%=      5-min Rain = 0
KLA1 240339Z 16010KT 21/13 A3003 RMK A01 T02070132  RH  062%=      5-min Rain = 0
KLA1 240340Z 15011KT 21/13 A3002 RMK A01 T02070133  RH  062%=      5-min Rain = 0
KLA1 240341Z 15011KT 21/13 A3003 RMK A01 T02070132  RH  062%=      5-min Rain = 0
KLA1 240342Z 15010KT 21/13 A3003 RMK A01 T02070133  RH  062%=      5-min Rain = 0
KLA1 240343Z 15008KT 21/13 A3003 RMK A01 T02070133  RH  062%=      5-min Rain = 0
KLA1 240344Z 14009KT 21/13 A3003 RMK A01 T02060133  RH  063%=      5-min Rain = 0
KLA1 240345Z 13007KT 21/13 A3003 RMK A01 T02050133  RH  063%=      5-min Rain = 0
KLA1 240346Z 14009KT 21/13 A3003 RMK A01 T02050133  RH  063%=      5-min Rain = 0
KLA1 240347Z 14009KT 20/13 A3003 RMK A01 T02040133  RH  064%=      5-min Rain = 0
KLA1 240348Z 13008KT 20/13 A3003 RMK A01 T02040134  RH  064%=      5-min Rain = 0
KLA1 240349Z 14010KT 20/14 A3003 RMK A01 T02030135  RH  065%=      5-min Rain = 0
KLA1 240350Z 14011KT 20/14 A3003 RMK A01 T02030136  RH  065%=      5-min Rain = 0
KLA1 240351Z 13009KT 20/14 A3003 RMK A01 T02030137  RH  066%=      5-min Rain = 0
KLA1 240352Z 14009KT 20/14 A3003 RMK A01 T02030137  RH  066%=      5-min Rain = 0
KLA1 240353Z 13010KT 20/14 A3003 RMK A01 T02020138  RH  066%=      5-min Rain = 0
KLA1 240354Z 12008KT 20/14 A3003 RMK A01 T02020138  RH  067%=      5-min Rain = 0
KLA1 240355Z 12009KT 20/14 A3003 RMK A01 T02020138  RH  067%=      5-min Rain = 0
KLA1 240356Z 12009KT 20/14 A3003 RMK A01 T02010138  RH  067%=      5-min Rain = 0
KLA1 240357Z 12010KT 20/14 A3003 RMK A01 T02000138  RH  067%=      5-min Rain = 0
KLA1 240358Z 13009KT 20/14 A3003 RMK A01 T02000138  RH  068%=      5-min Rain = 0
KLA1 240359Z 13009KT 20/14 A3003 RMK A01 T02000139  RH  068%=      5-min Rain = 0
KLA1 240400Z 14009KT 20/14 A3003 RMK A01 T01990139  RH  068%=      5-min Rain = 0
KLA1 240401Z 12008KT 20/14 A3003 RMK A01 T01980139  RH  069%=      5-min Rain = 0
KLA1 240402Z 13009KT 20/14 A3003 RMK A01 T01980139  RH  069%=      5-min Rain = 0
KLA1 240403Z 13009KT 20/14 A3003 RMK A01 T01980140  RH  069%=      5-min Rain = 0
KLA1 240404Z 14011KT 20/14 A3003 RMK A01 T01970140  RH  069%=      5-min Rain = 0
KLA1 240405Z 13008KT 20/14 A3003 RMK A01 T01970140  RH  070%=      5-min Rain = 0
KLA1 240406Z 13011KT 20/14 A3003 RMK A01 T01970140  RH  070%=      5-min Rain = 0
KLA1 240407Z 13010KT 20/14 A3003 RMK A01 T01970141  RH  070%=      5-min Rain = 0
KLA1 240408Z 13010KT 20/14 A3003 RMK A01 T01970141  RH  070%=      5-min Rain = 0
KLA1 240409Z 13007G12KT 20/14 A3003 RMK A01 T01970141  RH  070%=      5-min Rain = 0
KLA1 240410Z 12008KT 20/14 A3003 RMK A01 T01970141  RH  070%=      5-min Rain = 0
KLA1 240411Z 12007KT 20/14 A3003 RMK A01 T01960141  RH  071%=      5-min Rain = 0
KLA1 240412Z 12007KT 20/14 A3003 RMK A01 T01950141  RH  071%=      5-min Rain = 0
KLA1 240413Z 11006KT 20/14 A3004 RMK A01 T01950141  RH  071%=      5-min Rain = 0
KLA1 240414Z 11005KT 19/14 A3004 RMK A01 T01940141  RH  071%=      5-min Rain = 0
KLA1 240415Z 11005KT 19/14 A3004 RMK A01 T01930141  RH  071%=      5-min Rain = 0
KLA1 240416Z 11007KT 19/14 A3004 RMK A01 T01930141  RH  072%=      5-min Rain = 0
KLA1 240417Z 11008KT 19/14 A3004 RMK A01 T01930141  RH  072%=      5-min Rain = 0
KLA1 240418Z 11009KT 19/14 A3004 RMK A01 T01930142  RH  072%=      5-min Rain = 0
KLA1 240419Z 12008KT 19/14 A3004 RMK A01 T01930142  RH  072%=      5-min Rain = 0
KLA1 240420Z 12007KT 19/14 A3004 RMK A01 T01940142  RH  072%=      5-min Rain = 0
KLA1 240421Z 12007KT 19/14 A3004 RMK A01 T01930142  RH  072%=      5-min Rain = 0
KLA1 240422Z 11006KT 19/14 A3004 RMK A01 T01930142  RH  072%=      5-min Rain = 0
KLA1 240423Z 11008KT 19/14 A3004 RMK A01 T01920142  RH  072%=      5-min Rain = 0
KLA1 240424Z 11008KT 19/14 A3004 RMK A01 T01920143  RH  073%=      5-min Rain = 0
KLA1 240425Z 11007KT 19/14 A3004 RMK A01 T01920142  RH  073%=      5-min Rain = 0
KLA1 240426Z 11006KT 19/14 A3004 RMK A01 T01920142  RH  073%=      5-min Rain = 0
KLA1 240427Z 12007KT 19/14 A3004 RMK A01 T01920142  RH  073%=      5-min Rain = 0
KLA1 240428Z 11007KT 19/14 A3004 RMK A01 T01920142  RH  073%=      5-min Rain = 0
KLA1 240429Z 12006KT 19/14 A3004 RMK A01 T01920143  RH  073%=      5-min Rain = 0
KLA1 240430Z 13007KT 19/14 A3004 RMK A01 T01910142  RH  073%=      5-min Rain = 0
KLA1 240431Z 12008KT 19/14 A3004 RMK A01 T01910142  RH  073%=      5-min Rain = 0
KLA1 240432Z 11008KT 19/14 A3004 RMK A01 T01910143  RH  074%=      5-min Rain = 0
KLA1 240433Z 11007KT 19/14 A3004 RMK A01 T01910143  RH  074%=      5-min Rain = 0
KLA1 240434Z 11006KT 19/14 A3004 RMK A01 T01910142  RH  073%=      5-min Rain = 0
KLA1 240435Z 11007KT 19/14 A3004 RMK A01 T01910142  RH  073%=      5-min Rain = 0
KLA1 240436Z 11006KT 19/14 A3004 RMK A01 T01910142  RH  073%=      5-min Rain = 0
KLA1 240437Z 11009KT 19/14 A3004 RMK A01 T01910143  RH  074%=      5-min Rain = 0
KLA1 240438Z 10005KT 19/14 A3004 RMK A01 T01910143  RH  073%=      5-min Rain = 0
KLA1 240439Z 10005KT 19/14 A3004 RMK A01 T01910142  RH  073%=      5-min Rain = 0
KLA1 240440Z 10008KT 19/14 A3004 RMK A01 T01920143  RH  073%=      5-min Rain = 0
KLA1 240441Z 10006KT 19/14 A3004 RMK A01 T01910143  RH  073%=      5-min Rain = 0
KLA1 240442Z 10005KT 19/14 A3004 RMK A01 T01920142  RH  073%=      5-min Rain = 0
KLA1 240443Z 09005KT 19/14 A3004 RMK A01 T01910143  RH  073%=      5-min Rain = 0
KLA1 240444Z 10007KT 19/14 A3005 RMK A01 T01910143  RH  074%=      5-min Rain = 0
KLA1 240445Z 10006KT 19/14 A3004 RMK A01 T01910143  RH  074%=      5-min Rain = 0
KLA1 240446Z 11007KT 19/14 A3005 RMK A01 T01910143  RH  074%=      5-min Rain = 0
KLA1 240447Z 11007KT 19/14 A3005 RMK A01 T01910143  RH  074%=      5-min Rain = 0
KLA1 240448Z 11007KT 19/14 A3005 RMK A01 T01910143  RH  074%=      5-min Rain = 0
KLA1 240449Z 10009KT 19/14 A3005 RMK A01 T01910143  RH  074%=      5-min Rain = 0
KLA1 240450Z 12007KT 19/14 A3005 RMK A01 T01910144  RH  074%=      5-min Rain = 0
KLA1 240451Z 11007KT 19/14 A3004 RMK A01 T01910143  RH  074%=      5-min Rain = 0
KLA1 240452Z 11007KT 19/14 A3004 RMK A01 T01900143  RH  074%=      5-min Rain = 0
KLA1 240453Z 11006KT 19/14 A3004 RMK A01 T01900143  RH  074%=      5-min Rain = 0
KLA1 240454Z 11006KT 19/14 A3005 RMK A01 T01890143  RH  074%=      5-min Rain = 0
KLA1 240455Z 12008KT 19/14 A3005 RMK A01 T01880143  RH  075%=      5-min Rain = 0
KLA1 240456Z 12006KT 19/14 A3005 RMK A01 T01880143  RH  075%=      5-min Rain = 0
KLA1 240457Z 12006KT 19/14 A3005 RMK A01 T01880144  RH  075%=      5-min Rain = 0
KLA1 240458Z 12007KT 19/14 A3005 RMK A01 T01870143  RH  076%=      5-min Rain = 0
KLA1 240459Z 11006KT 19/14 A3005 RMK A01 T01870144  RH  076%=      5-min Rain = 0

Page generated in 0.1258 seconds.